<?xml version="1.0" encoding="UTF-8" standalone="no" ?>
<gpx xmlns="http://www.topografix.com/GPX/1/1" xmlns:xsi="http://www.w3.org/2001/XMLSchema-instance" xsi:schemaLocation="http://www.topografix.com/GPX/1/1 http://www.topografix.com/GPX/1/1/gpx.xsd" version="1.1" creator="VisuGPX - https://www.visugpx.com">
  <metadata>
    <name>monnieres</name>
    <desc><![CDATA[Rando plus qu\'humide]]></desc>
  </metadata>
  <trk>
    <name><![CDATA[monnieres pluie]]></name>
    <trkseg>
      <trkpt lat="47.11354" lon="5.45686">
        <ele>207</ele>
        <time>2013-04-11T13:46:05Z</time>
      </trkpt>
      <trkpt lat="47.11353" lon="5.45686">
        <ele>207</ele>
        <time>2013-04-11T13:46:06Z</time>
      </trkpt>
      <trkpt lat="47.11349" lon="5.45681">
        <ele>211</ele>
        <time>2013-04-11T13:46:10Z</time>
      </trkpt>
      <trkpt lat="47.11348" lon="5.45679">
        <ele>212</ele>
        <time>2013-04-11T13:46:11Z</time>
      </trkpt>
      <trkpt lat="47.11344" lon="5.4567">
        <ele>217</ele>
        <time>2013-04-11T13:46:15Z</time>
      </trkpt>
      <trkpt lat="47.11343" lon="5.45667">
        <ele>219</ele>
        <time>2013-04-11T13:46:16Z</time>
      </trkpt>
      <trkpt lat="47.11342" lon="5.45659">
        <ele>224</ele>
        <time>2013-04-11T13:46:20Z</time>
      </trkpt>
      <trkpt lat="47.11342" lon="5.45651">
        <ele>228</ele>
        <time>2013-04-11T13:46:24Z</time>
      </trkpt>
      <trkpt lat="47.11342" lon="5.4565">
        <ele>228</ele>
        <time>2013-04-11T13:46:25Z</time>
      </trkpt>
      <trkpt lat="47.11343" lon="5.45643">
        <ele>232</ele>
        <time>2013-04-11T13:46:28Z</time>
      </trkpt>
      <trkpt lat="47.11343" lon="5.4563">
        <ele>235</ele>
        <time>2013-04-11T13:46:32Z</time>
      </trkpt>
      <trkpt lat="47.11349" lon="5.45624">
        <ele>238</ele>
        <time>2013-04-11T13:46:37Z</time>
      </trkpt>
      <trkpt lat="47.11353" lon="5.45622">
        <ele>242</ele>
        <time>2013-04-11T13:46:40Z</time>
      </trkpt>
      <trkpt lat="47.11362" lon="5.45618">
        <ele>245</ele>
        <time>2013-04-11T13:46:46Z</time>
      </trkpt>
      <trkpt lat="47.11365" lon="5.45617">
        <ele>246</ele>
        <time>2013-04-11T13:46:48Z</time>
      </trkpt>
      <trkpt lat="47.1137" lon="5.45615">
        <ele>247</ele>
        <time>2013-04-11T13:46:53Z</time>
      </trkpt>
      <trkpt lat="47.1138" lon="5.45608">
        <ele>249</ele>
        <time>2013-04-11T13:46:59Z</time>
      </trkpt>
      <trkpt lat="47.1139" lon="5.45594">
        <ele>249</ele>
        <time>2013-04-11T13:47:10Z</time>
      </trkpt>
      <trkpt lat="47.11407" lon="5.45584">
        <ele>251</ele>
        <time>2013-04-11T13:47:24Z</time>
      </trkpt>
      <trkpt lat="47.11417" lon="5.45576">
        <ele>253</ele>
        <time>2013-04-11T13:47:41Z</time>
      </trkpt>
      <trkpt lat="47.11433" lon="5.45562">
        <ele>256</ele>
        <time>2013-04-11T13:47:58Z</time>
      </trkpt>
      <trkpt lat="47.11457" lon="5.4554">
        <ele>256</ele>
        <time>2013-04-11T13:48:20Z</time>
      </trkpt>
      <trkpt lat="47.1148" lon="5.4552">
        <ele>255</ele>
        <time>2013-04-11T13:48:42Z</time>
      </trkpt>
      <trkpt lat="47.11492" lon="5.455">
        <ele>255</ele>
        <time>2013-04-11T13:49:01Z</time>
      </trkpt>
      <trkpt lat="47.1151" lon="5.45483">
        <ele>254</ele>
        <time>2013-04-11T13:49:21Z</time>
      </trkpt>
      <trkpt lat="47.11517" lon="5.4547">
        <ele>254</ele>
        <time>2013-04-11T13:49:39Z</time>
      </trkpt>
      <trkpt lat="47.11516" lon="5.45465">
        <ele>254</ele>
        <time>2013-04-11T13:50:41Z</time>
      </trkpt>
      <trkpt lat="47.11542" lon="5.4546">
        <ele>253</ele>
        <time>2013-04-11T13:51:28Z</time>
      </trkpt>
      <trkpt lat="47.11546" lon="5.45444">
        <ele>252</ele>
        <time>2013-04-11T13:51:55Z</time>
      </trkpt>
      <trkpt lat="47.11552" lon="5.45425">
        <ele>249</ele>
        <time>2013-04-11T13:52:19Z</time>
      </trkpt>
      <trkpt lat="47.11567" lon="5.45395">
        <ele>246</ele>
        <time>2013-04-11T13:52:45Z</time>
      </trkpt>
      <trkpt lat="47.11574" lon="5.45366">
        <ele>245</ele>
        <time>2013-04-11T13:53:05Z</time>
      </trkpt>
      <trkpt lat="47.1158" lon="5.45331">
        <ele>243</ele>
        <time>2013-04-11T13:53:26Z</time>
      </trkpt>
      <trkpt lat="47.11595" lon="5.45322">
        <ele>242</ele>
        <time>2013-04-11T13:53:48Z</time>
      </trkpt>
      <trkpt lat="47.11607" lon="5.45305">
        <ele>241</ele>
        <time>2013-04-11T13:54:07Z</time>
      </trkpt>
      <trkpt lat="47.11613" lon="5.4528">
        <ele>242</ele>
        <time>2013-04-11T13:54:30Z</time>
      </trkpt>
      <trkpt lat="47.1162" lon="5.45253">
        <ele>241</ele>
        <time>2013-04-11T13:54:49Z</time>
      </trkpt>
      <trkpt lat="47.1162" lon="5.45247">
        <ele>241</ele>
        <time>2013-04-11T13:54:51Z</time>
      </trkpt>
      <trkpt lat="47.11639" lon="5.45227">
        <ele>240</ele>
        <time>2013-04-11T13:55:08Z</time>
      </trkpt>
      <trkpt lat="47.11664" lon="5.45208">
        <ele>240</ele>
        <time>2013-04-11T13:55:30Z</time>
      </trkpt>
      <trkpt lat="47.11691" lon="5.45188">
        <ele>240</ele>
        <time>2013-04-11T13:55:52Z</time>
      </trkpt>
      <trkpt lat="47.11709" lon="5.45172">
        <ele>240</ele>
        <time>2013-04-11T13:56:08Z</time>
      </trkpt>
      <trkpt lat="47.11724" lon="5.45152">
        <ele>240</ele>
        <time>2013-04-11T13:56:23Z</time>
      </trkpt>
      <trkpt lat="47.11741" lon="5.45127">
        <ele>239</ele>
        <time>2013-04-11T13:56:41Z</time>
      </trkpt>
      <trkpt lat="47.11751" lon="5.45114">
        <ele>239</ele>
        <time>2013-04-11T13:56:51Z</time>
      </trkpt>
      <trkpt lat="47.11752" lon="5.4511">
        <ele>238</ele>
        <time>2013-04-11T13:56:54Z</time>
      </trkpt>
      <trkpt lat="47.11762" lon="5.45099">
        <ele>238</ele>
        <time>2013-04-11T13:57:07Z</time>
      </trkpt>
      <trkpt lat="47.11766" lon="5.45103">
        <ele>238</ele>
        <time>2013-04-11T13:57:11Z</time>
      </trkpt>
      <trkpt lat="47.11785" lon="5.45105">
        <ele>238</ele>
        <time>2013-04-11T13:57:25Z</time>
      </trkpt>
      <trkpt lat="47.11803" lon="5.45111">
        <ele>237</ele>
        <time>2013-04-11T13:57:40Z</time>
      </trkpt>
      <trkpt lat="47.11806" lon="5.45113">
        <ele>236</ele>
        <time>2013-04-11T13:57:44Z</time>
      </trkpt>
      <trkpt lat="47.11822" lon="5.45123">
        <ele>237</ele>
        <time>2013-04-11T13:57:59Z</time>
      </trkpt>
      <trkpt lat="47.11845" lon="5.45133">
        <ele>236</ele>
        <time>2013-04-11T13:58:18Z</time>
      </trkpt>
      <trkpt lat="47.11866" lon="5.45132">
        <ele>236</ele>
        <time>2013-04-11T13:58:35Z</time>
      </trkpt>
      <trkpt lat="47.11887" lon="5.45129">
        <ele>236</ele>
        <time>2013-04-11T13:58:50Z</time>
      </trkpt>
      <trkpt lat="47.11907" lon="5.45128">
        <ele>236</ele>
        <time>2013-04-11T13:59:08Z</time>
      </trkpt>
      <trkpt lat="47.11918" lon="5.45134">
        <ele>236</ele>
        <time>2013-04-11T13:59:20Z</time>
      </trkpt>
      <trkpt lat="47.11936" lon="5.45137">
        <ele>237</ele>
        <time>2013-04-11T13:59:34Z</time>
      </trkpt>
      <trkpt lat="47.11956" lon="5.45143">
        <ele>236</ele>
        <time>2013-04-11T13:59:50Z</time>
      </trkpt>
      <trkpt lat="47.1197" lon="5.45146">
        <ele>235</ele>
        <time>2013-04-11T14:00:02Z</time>
      </trkpt>
      <trkpt lat="47.11989" lon="5.45146">
        <ele>235</ele>
        <time>2013-04-11T14:00:19Z</time>
      </trkpt>
      <trkpt lat="47.12013" lon="5.45145">
        <ele>234</ele>
        <time>2013-04-11T14:00:35Z</time>
      </trkpt>
      <trkpt lat="47.12031" lon="5.45141">
        <ele>233</ele>
        <time>2013-04-11T14:00:50Z</time>
      </trkpt>
      <trkpt lat="47.12054" lon="5.45134">
        <ele>231</ele>
        <time>2013-04-11T14:01:07Z</time>
      </trkpt>
      <trkpt lat="47.12079" lon="5.45124">
        <ele>230</ele>
        <time>2013-04-11T14:01:25Z</time>
      </trkpt>
      <trkpt lat="47.12086" lon="5.45121">
        <ele>230</ele>
        <time>2013-04-11T14:01:30Z</time>
      </trkpt>
      <trkpt lat="47.12108" lon="5.45108">
        <ele>228</ele>
        <time>2013-04-11T14:01:48Z</time>
      </trkpt>
      <trkpt lat="47.12126" lon="5.45103">
        <ele>227</ele>
        <time>2013-04-11T14:02:03Z</time>
      </trkpt>
      <trkpt lat="47.12156" lon="5.45095">
        <ele>225</ele>
        <time>2013-04-11T14:02:26Z</time>
      </trkpt>
      <trkpt lat="47.1218" lon="5.45097">
        <ele>224</ele>
        <time>2013-04-11T14:02:44Z</time>
      </trkpt>
      <trkpt lat="47.12192" lon="5.45099">
        <ele>224</ele>
        <time>2013-04-11T14:02:54Z</time>
      </trkpt>
      <trkpt lat="47.12198" lon="5.451">
        <ele>224</ele>
        <time>2013-04-11T14:02:59Z</time>
      </trkpt>
      <trkpt lat="47.12205" lon="5.45104">
        <ele>224</ele>
        <time>2013-04-11T14:03:04Z</time>
      </trkpt>
      <trkpt lat="47.12209" lon="5.45106">
        <ele>223</ele>
        <time>2013-04-11T14:03:07Z</time>
      </trkpt>
      <trkpt lat="47.12228" lon="5.45117">
        <ele>223</ele>
        <time>2013-04-11T14:03:24Z</time>
      </trkpt>
      <trkpt lat="47.12244" lon="5.45129">
        <ele>223</ele>
        <time>2013-04-11T14:03:37Z</time>
      </trkpt>
      <trkpt lat="47.1226" lon="5.4514">
        <ele>223</ele>
        <time>2013-04-11T14:03:51Z</time>
      </trkpt>
      <trkpt lat="47.12287" lon="5.45155">
        <ele>223</ele>
        <time>2013-04-11T14:04:11Z</time>
      </trkpt>
      <trkpt lat="47.123" lon="5.45164">
        <ele>222</ele>
        <time>2013-04-11T14:04:23Z</time>
      </trkpt>
      <trkpt lat="47.12322" lon="5.45184">
        <ele>221</ele>
        <time>2013-04-11T14:04:41Z</time>
      </trkpt>
      <trkpt lat="47.12323" lon="5.45186">
        <ele>221</ele>
        <time>2013-04-11T14:04:43Z</time>
      </trkpt>
      <trkpt lat="47.1234" lon="5.45197">
        <ele>221</ele>
        <time>2013-04-11T14:04:57Z</time>
      </trkpt>
      <trkpt lat="47.12353" lon="5.45204">
        <ele>221</ele>
        <time>2013-04-11T14:05:08Z</time>
      </trkpt>
      <trkpt lat="47.12376" lon="5.45219">
        <ele>220</ele>
        <time>2013-04-11T14:05:27Z</time>
      </trkpt>
      <trkpt lat="47.12397" lon="5.45228">
        <ele>219</ele>
        <time>2013-04-11T14:05:42Z</time>
      </trkpt>
      <trkpt lat="47.12416" lon="5.45237">
        <ele>219</ele>
        <time>2013-04-11T14:05:58Z</time>
      </trkpt>
      <trkpt lat="47.12436" lon="5.45245">
        <ele>217</ele>
        <time>2013-04-11T14:06:14Z</time>
      </trkpt>
      <trkpt lat="47.12439" lon="5.45246">
        <ele>217</ele>
        <time>2013-04-11T14:06:16Z</time>
      </trkpt>
      <trkpt lat="47.12445" lon="5.45249">
        <ele>217</ele>
        <time>2013-04-11T14:06:21Z</time>
      </trkpt>
      <trkpt lat="47.1246" lon="5.45262">
        <ele>217</ele>
        <time>2013-04-11T14:06:37Z</time>
      </trkpt>
      <trkpt lat="47.12465" lon="5.45267">
        <ele>217</ele>
        <time>2013-04-11T14:06:41Z</time>
      </trkpt>
      <trkpt lat="47.12485" lon="5.45281">
        <ele>216</ele>
        <time>2013-04-11T14:06:56Z</time>
      </trkpt>
      <trkpt lat="47.12503" lon="5.45286">
        <ele>215</ele>
        <time>2013-04-11T14:07:10Z</time>
      </trkpt>
      <trkpt lat="47.12508" lon="5.45285">
        <ele>215</ele>
        <time>2013-04-11T14:07:13Z</time>
      </trkpt>
      <trkpt lat="47.12514" lon="5.45275">
        <ele>214</ele>
        <time>2013-04-11T14:07:18Z</time>
      </trkpt>
      <trkpt lat="47.12522" lon="5.45251">
        <ele>213</ele>
        <time>2013-04-11T14:07:35Z</time>
      </trkpt>
      <trkpt lat="47.12526" lon="5.4524">
        <ele>212</ele>
        <time>2013-04-11T14:07:43Z</time>
      </trkpt>
      <trkpt lat="47.12526" lon="5.45237">
        <ele>212</ele>
        <time>2013-04-11T14:07:45Z</time>
      </trkpt>
      <trkpt lat="47.12531" lon="5.45224">
        <ele>211</ele>
        <time>2013-04-11T14:07:52Z</time>
      </trkpt>
      <trkpt lat="47.12533" lon="5.45216">
        <ele>211</ele>
        <time>2013-04-11T14:07:56Z</time>
      </trkpt>
      <trkpt lat="47.12538" lon="5.45198">
        <ele>211</ele>
        <time>2013-04-11T14:08:05Z</time>
      </trkpt>
      <trkpt lat="47.1254" lon="5.45194">
        <ele>210</ele>
        <time>2013-04-11T14:08:09Z</time>
      </trkpt>
      <trkpt lat="47.12544" lon="5.45186">
        <ele>210</ele>
        <time>2013-04-11T14:08:14Z</time>
      </trkpt>
      <trkpt lat="47.12553" lon="5.45154">
        <ele>210</ele>
        <time>2013-04-11T14:08:32Z</time>
      </trkpt>
      <trkpt lat="47.12555" lon="5.4515">
        <ele>209</ele>
        <time>2013-04-11T14:08:34Z</time>
      </trkpt>
      <trkpt lat="47.12561" lon="5.45123">
        <ele>209</ele>
        <time>2013-04-11T14:08:49Z</time>
      </trkpt>
      <trkpt lat="47.12569" lon="5.45097">
        <ele>208</ele>
        <time>2013-04-11T14:09:04Z</time>
      </trkpt>
      <trkpt lat="47.12571" lon="5.45088">
        <ele>208</ele>
        <time>2013-04-11T14:09:09Z</time>
      </trkpt>
      <trkpt lat="47.12576" lon="5.45057">
        <ele>207</ele>
        <time>2013-04-11T14:09:26Z</time>
      </trkpt>
      <trkpt lat="47.12582" lon="5.45027">
        <ele>206</ele>
        <time>2013-04-11T14:09:41Z</time>
      </trkpt>
      <trkpt lat="47.12594" lon="5.44999">
        <ele>207</ele>
        <time>2013-04-11T14:10:00Z</time>
      </trkpt>
      <trkpt lat="47.12607" lon="5.45">
        <ele>207</ele>
        <time>2013-04-11T14:10:15Z</time>
      </trkpt>
      <trkpt lat="47.12611" lon="5.45001">
        <ele>206</ele>
        <time>2013-04-11T14:10:18Z</time>
      </trkpt>
      <trkpt lat="47.12617" lon="5.45001">
        <ele>206</ele>
        <time>2013-04-11T14:10:22Z</time>
      </trkpt>
      <trkpt lat="47.12642" lon="5.4501">
        <ele>205</ele>
        <time>2013-04-11T14:10:40Z</time>
      </trkpt>
      <trkpt lat="47.12663" lon="5.45019">
        <ele>204</ele>
        <time>2013-04-11T14:10:58Z</time>
      </trkpt>
      <trkpt lat="47.12681" lon="5.45029">
        <ele>203</ele>
        <time>2013-04-11T14:11:15Z</time>
      </trkpt>
      <trkpt lat="47.12694" lon="5.45034">
        <ele>202</ele>
        <time>2013-04-11T14:11:26Z</time>
      </trkpt>
      <trkpt lat="47.12712" lon="5.45037">
        <ele>202</ele>
        <time>2013-04-11T14:11:42Z</time>
      </trkpt>
      <trkpt lat="47.1273" lon="5.45019">
        <ele>202</ele>
        <time>2013-04-11T14:12:04Z</time>
      </trkpt>
      <trkpt lat="47.1274" lon="5.45009">
        <ele>202</ele>
        <time>2013-04-11T14:12:18Z</time>
      </trkpt>
      <trkpt lat="47.12744" lon="5.45004">
        <ele>202</ele>
        <time>2013-04-11T14:12:22Z</time>
      </trkpt>
      <trkpt lat="47.12748" lon="5.44988">
        <ele>202</ele>
        <time>2013-04-11T14:12:34Z</time>
      </trkpt>
      <trkpt lat="47.12766" lon="5.44985">
        <ele>202</ele>
        <time>2013-04-11T14:12:48Z</time>
      </trkpt>
      <trkpt lat="47.12788" lon="5.44984">
        <ele>202</ele>
        <time>2013-04-11T14:13:04Z</time>
      </trkpt>
      <trkpt lat="47.12804" lon="5.44979">
        <ele>202</ele>
        <time>2013-04-11T14:13:17Z</time>
      </trkpt>
      <trkpt lat="47.12822" lon="5.44981">
        <ele>202</ele>
        <time>2013-04-11T14:13:29Z</time>
      </trkpt>
      <trkpt lat="47.12841" lon="5.44991">
        <ele>201</ele>
        <time>2013-04-11T14:13:45Z</time>
      </trkpt>
      <trkpt lat="47.12843" lon="5.44993">
        <ele>202</ele>
        <time>2013-04-11T14:13:47Z</time>
      </trkpt>
      <trkpt lat="47.1286" lon="5.45009">
        <ele>201</ele>
        <time>2013-04-11T14:14:02Z</time>
      </trkpt>
      <trkpt lat="47.12879" lon="5.45026">
        <ele>201</ele>
        <time>2013-04-11T14:14:18Z</time>
      </trkpt>
      <trkpt lat="47.12888" lon="5.45039">
        <ele>202</ele>
        <time>2013-04-11T14:14:28Z</time>
      </trkpt>
      <trkpt lat="47.1291" lon="5.45068">
        <ele>202</ele>
        <time>2013-04-11T14:14:49Z</time>
      </trkpt>
      <trkpt lat="47.12922" lon="5.45096">
        <ele>202</ele>
        <time>2013-04-11T14:15:07Z</time>
      </trkpt>
      <trkpt lat="47.12928" lon="5.45104">
        <ele>202</ele>
        <time>2013-04-11T14:15:13Z</time>
      </trkpt>
      <trkpt lat="47.1294" lon="5.45126">
        <ele>203</ele>
        <time>2013-04-11T14:15:28Z</time>
      </trkpt>
      <trkpt lat="47.12948" lon="5.45139">
        <ele>203</ele>
        <time>2013-04-11T14:15:36Z</time>
      </trkpt>
      <trkpt lat="47.12956" lon="5.45157">
        <ele>204</ele>
        <time>2013-04-11T14:15:49Z</time>
      </trkpt>
      <trkpt lat="47.12957" lon="5.45186">
        <ele>205</ele>
        <time>2013-04-11T14:16:09Z</time>
      </trkpt>
      <trkpt lat="47.12952" lon="5.45207">
        <ele>206</ele>
        <time>2013-04-11T14:16:20Z</time>
      </trkpt>
      <trkpt lat="47.12942" lon="5.45249">
        <ele>207</ele>
        <time>2013-04-11T14:16:39Z</time>
      </trkpt>
      <trkpt lat="47.12932" lon="5.45275">
        <ele>207</ele>
        <time>2013-04-11T14:16:53Z</time>
      </trkpt>
      <trkpt lat="47.12929" lon="5.45282">
        <ele>208</ele>
        <time>2013-04-11T14:16:59Z</time>
      </trkpt>
      <trkpt lat="47.12919" lon="5.45309">
        <ele>209</ele>
        <time>2013-04-11T14:17:17Z</time>
      </trkpt>
      <trkpt lat="47.12919" lon="5.45348">
        <ele>209</ele>
        <time>2013-04-11T14:17:40Z</time>
      </trkpt>
      <trkpt lat="47.12922" lon="5.45369">
        <ele>209</ele>
        <time>2013-04-11T14:17:52Z</time>
      </trkpt>
      <trkpt lat="47.12925" lon="5.45409">
        <ele>210</ele>
        <time>2013-04-11T14:18:12Z</time>
      </trkpt>
      <trkpt lat="47.1293" lon="5.45446">
        <ele>210</ele>
        <time>2013-04-11T14:18:32Z</time>
      </trkpt>
      <trkpt lat="47.12936" lon="5.4548">
        <ele>210</ele>
        <time>2013-04-11T14:18:51Z</time>
      </trkpt>
      <trkpt lat="47.1294" lon="5.45514">
        <ele>210</ele>
        <time>2013-04-11T14:19:08Z</time>
      </trkpt>
      <trkpt lat="47.12939" lon="5.45546">
        <ele>211</ele>
        <time>2013-04-11T14:19:24Z</time>
      </trkpt>
      <trkpt lat="47.12938" lon="5.45592">
        <ele>211</ele>
        <time>2013-04-11T14:19:48Z</time>
      </trkpt>
      <trkpt lat="47.12936" lon="5.45629">
        <ele>211</ele>
        <time>2013-04-11T14:20:08Z</time>
      </trkpt>
      <trkpt lat="47.12932" lon="5.45667">
        <ele>210</ele>
        <time>2013-04-11T14:20:29Z</time>
      </trkpt>
      <trkpt lat="47.12933" lon="5.45685">
        <ele>209</ele>
        <time>2013-04-11T14:20:42Z</time>
      </trkpt>
      <trkpt lat="47.12932" lon="5.45687">
        <ele>210</ele>
        <time>2013-04-11T14:20:44Z</time>
      </trkpt>
      <trkpt lat="47.12929" lon="5.45689">
        <ele>209</ele>
        <time>2013-04-11T14:20:46Z</time>
      </trkpt>
      <trkpt lat="47.12923" lon="5.45698">
        <ele>210</ele>
        <time>2013-04-11T14:20:53Z</time>
      </trkpt>
      <trkpt lat="47.1291" lon="5.45725">
        <ele>211</ele>
        <time>2013-04-11T14:21:14Z</time>
      </trkpt>
      <trkpt lat="47.12897" lon="5.45746">
        <ele>212</ele>
        <time>2013-04-11T14:21:28Z</time>
      </trkpt>
      <trkpt lat="47.12885" lon="5.45772">
        <ele>212</ele>
        <time>2013-04-11T14:21:46Z</time>
      </trkpt>
      <trkpt lat="47.1287" lon="5.45803">
        <ele>213</ele>
        <time>2013-04-11T14:22:06Z</time>
      </trkpt>
      <trkpt lat="47.12858" lon="5.45829">
        <ele>215</ele>
        <time>2013-04-11T14:22:23Z</time>
      </trkpt>
      <trkpt lat="47.12848" lon="5.4585">
        <ele>215</ele>
        <time>2013-04-11T14:22:36Z</time>
      </trkpt>
      <trkpt lat="47.12842" lon="5.45862">
        <ele>216</ele>
        <time>2013-04-11T14:22:45Z</time>
      </trkpt>
      <trkpt lat="47.1284" lon="5.45864">
        <ele>216</ele>
        <time>2013-04-11T14:22:47Z</time>
      </trkpt>
      <trkpt lat="47.12832" lon="5.45886">
        <ele>217</ele>
        <time>2013-04-11T14:23:02Z</time>
      </trkpt>
      <trkpt lat="47.12834" lon="5.45891">
        <ele>217</ele>
        <time>2013-04-11T14:23:06Z</time>
      </trkpt>
      <trkpt lat="47.12846" lon="5.45918">
        <ele>217</ele>
        <time>2013-04-11T14:23:25Z</time>
      </trkpt>
      <trkpt lat="47.12847" lon="5.45919">
        <ele>218</ele>
        <time>2013-04-11T14:23:26Z</time>
      </trkpt>
      <trkpt lat="47.12863" lon="5.45956">
        <ele>217</ele>
        <time>2013-04-11T14:23:48Z</time>
      </trkpt>
      <trkpt lat="47.12877" lon="5.45988">
        <ele>216</ele>
        <time>2013-04-11T14:24:08Z</time>
      </trkpt>
      <trkpt lat="47.12891" lon="5.46018">
        <ele>217</ele>
        <time>2013-04-11T14:24:28Z</time>
      </trkpt>
      <trkpt lat="47.12903" lon="5.46048">
        <ele>217</ele>
        <time>2013-04-11T14:24:46Z</time>
      </trkpt>
      <trkpt lat="47.12913" lon="5.46085">
        <ele>217</ele>
        <time>2013-04-11T14:25:06Z</time>
      </trkpt>
      <trkpt lat="47.12924" lon="5.46115">
        <ele>217</ele>
        <time>2013-04-11T14:25:23Z</time>
      </trkpt>
      <trkpt lat="47.12933" lon="5.46154">
        <ele>218</ele>
        <time>2013-04-11T14:25:44Z</time>
      </trkpt>
      <trkpt lat="47.12944" lon="5.46186">
        <ele>218</ele>
        <time>2013-04-11T14:26:03Z</time>
      </trkpt>
      <trkpt lat="47.12959" lon="5.4622">
        <ele>219</ele>
        <time>2013-04-11T14:26:23Z</time>
      </trkpt>
      <trkpt lat="47.12974" lon="5.46247">
        <ele>218</ele>
        <time>2013-04-11T14:26:42Z</time>
      </trkpt>
      <trkpt lat="47.12989" lon="5.46274">
        <ele>218</ele>
        <time>2013-04-11T14:27:00Z</time>
      </trkpt>
      <trkpt lat="47.13009" lon="5.4631">
        <ele>220</ele>
        <time>2013-04-11T14:27:23Z</time>
      </trkpt>
      <trkpt lat="47.1303" lon="5.46351">
        <ele>221</ele>
        <time>2013-04-11T14:27:50Z</time>
      </trkpt>
      <trkpt lat="47.13045" lon="5.46378">
        <ele>221</ele>
        <time>2013-04-11T14:28:10Z</time>
      </trkpt>
      <trkpt lat="47.13062" lon="5.46415">
        <ele>224</ele>
        <time>2013-04-11T14:28:34Z</time>
      </trkpt>
      <trkpt lat="47.13074" lon="5.46446">
        <ele>224</ele>
        <time>2013-04-11T14:28:54Z</time>
      </trkpt>
      <trkpt lat="47.1309" lon="5.46496">
        <ele>225</ele>
        <time>2013-04-11T14:29:21Z</time>
      </trkpt>
      <trkpt lat="47.13101" lon="5.46527">
        <ele>225</ele>
        <time>2013-04-11T14:29:40Z</time>
      </trkpt>
      <trkpt lat="47.13113" lon="5.46555">
        <ele>225</ele>
        <time>2013-04-11T14:29:57Z</time>
      </trkpt>
      <trkpt lat="47.13127" lon="5.46589">
        <ele>224</ele>
        <time>2013-04-11T14:30:17Z</time>
      </trkpt>
      <trkpt lat="47.13146" lon="5.46629">
        <ele>223</ele>
        <time>2013-04-11T14:30:42Z</time>
      </trkpt>
      <trkpt lat="47.13151" lon="5.46669">
        <ele>222</ele>
        <time>2013-04-11T14:31:02Z</time>
      </trkpt>
      <trkpt lat="47.13152" lon="5.46697">
        <ele>221</ele>
        <time>2013-04-11T14:31:18Z</time>
      </trkpt>
      <trkpt lat="47.13151" lon="5.46724">
        <ele>220</ele>
        <time>2013-04-11T14:31:31Z</time>
      </trkpt>
      <trkpt lat="47.13153" lon="5.46756">
        <ele>220</ele>
        <time>2013-04-11T14:31:47Z</time>
      </trkpt>
      <trkpt lat="47.13151" lon="5.46781">
        <ele>220</ele>
        <time>2013-04-11T14:31:59Z</time>
      </trkpt>
      <trkpt lat="47.13144" lon="5.46813">
        <ele>222</ele>
        <time>2013-04-11T14:32:17Z</time>
      </trkpt>
      <trkpt lat="47.13139" lon="5.46845">
        <ele>224</ele>
        <time>2013-04-11T14:32:35Z</time>
      </trkpt>
      <trkpt lat="47.13135" lon="5.46877">
        <ele>225</ele>
        <time>2013-04-11T14:32:53Z</time>
      </trkpt>
      <trkpt lat="47.1313" lon="5.4691">
        <ele>228</ele>
        <time>2013-04-11T14:33:12Z</time>
      </trkpt>
      <trkpt lat="47.13128" lon="5.46925">
        <ele>229</ele>
        <time>2013-04-11T14:33:20Z</time>
      </trkpt>
      <trkpt lat="47.13129" lon="5.46934">
        <ele>228</ele>
        <time>2013-04-11T14:33:25Z</time>
      </trkpt>
      <trkpt lat="47.13142" lon="5.46957">
        <ele>229</ele>
        <time>2013-04-11T14:33:43Z</time>
      </trkpt>
      <trkpt lat="47.13144" lon="5.46972">
        <ele>229</ele>
        <time>2013-04-11T14:33:52Z</time>
      </trkpt>
      <trkpt lat="47.13147" lon="5.46977">
        <ele>229</ele>
        <time>2013-04-11T14:33:55Z</time>
      </trkpt>
      <trkpt lat="47.1315" lon="5.46982">
        <ele>229</ele>
        <time>2013-04-11T14:33:58Z</time>
      </trkpt>
      <trkpt lat="47.13153" lon="5.46989">
        <ele>229</ele>
        <time>2013-04-11T14:34:02Z</time>
      </trkpt>
      <trkpt lat="47.13164" lon="5.47018">
        <ele>228</ele>
        <time>2013-04-11T14:34:20Z</time>
      </trkpt>
      <trkpt lat="47.13174" lon="5.47045">
        <ele>228</ele>
        <time>2013-04-11T14:34:34Z</time>
      </trkpt>
      <trkpt lat="47.13178" lon="5.47055">
        <ele>227</ele>
        <time>2013-04-11T14:34:41Z</time>
      </trkpt>
      <trkpt lat="47.13181" lon="5.47067">
        <ele>227</ele>
        <time>2013-04-11T14:34:48Z</time>
      </trkpt>
      <trkpt lat="47.13192" lon="5.47095">
        <ele>226</ele>
        <time>2013-04-11T14:35:07Z</time>
      </trkpt>
      <trkpt lat="47.13197" lon="5.47104">
        <ele>225</ele>
        <time>2013-04-11T14:35:13Z</time>
      </trkpt>
      <trkpt lat="47.13197" lon="5.47111">
        <ele>225</ele>
        <time>2013-04-11T14:35:17Z</time>
      </trkpt>
      <trkpt lat="47.13202" lon="5.47123">
        <ele>225</ele>
        <time>2013-04-11T14:35:30Z</time>
      </trkpt>
      <trkpt lat="47.13205" lon="5.47132">
        <ele>225</ele>
        <time>2013-04-11T14:35:38Z</time>
      </trkpt>
      <trkpt lat="47.1322" lon="5.47161">
        <ele>224</ele>
        <time>2013-04-11T14:35:58Z</time>
      </trkpt>
      <trkpt lat="47.13224" lon="5.47164">
        <ele>222</ele>
        <time>2013-04-11T14:36:01Z</time>
      </trkpt>
      <trkpt lat="47.13232" lon="5.47178">
        <ele>221</ele>
        <time>2013-04-11T14:36:08Z</time>
      </trkpt>
      <trkpt lat="47.13237" lon="5.47183">
        <ele>220</ele>
        <time>2013-04-11T14:36:13Z</time>
      </trkpt>
      <trkpt lat="47.13249" lon="5.47214">
        <ele>219</ele>
        <time>2013-04-11T14:36:31Z</time>
      </trkpt>
      <trkpt lat="47.13263" lon="5.47239">
        <ele>220</ele>
        <time>2013-04-11T14:36:47Z</time>
      </trkpt>
      <trkpt lat="47.13276" lon="5.47271">
        <ele>219</ele>
        <time>2013-04-11T14:37:05Z</time>
      </trkpt>
      <trkpt lat="47.13277" lon="5.47274">
        <ele>219</ele>
        <time>2013-04-11T14:37:07Z</time>
      </trkpt>
      <trkpt lat="47.1328" lon="5.47281">
        <ele>219</ele>
        <time>2013-04-11T14:37:12Z</time>
      </trkpt>
      <trkpt lat="47.13288" lon="5.47305">
        <ele>218</ele>
        <time>2013-04-11T14:37:26Z</time>
      </trkpt>
      <trkpt lat="47.13294" lon="5.47321">
        <ele>218</ele>
        <time>2013-04-11T14:37:38Z</time>
      </trkpt>
      <trkpt lat="47.13303" lon="5.47335">
        <ele>218</ele>
        <time>2013-04-11T14:37:47Z</time>
      </trkpt>
      <trkpt lat="47.13323" lon="5.47376">
        <ele>218</ele>
        <time>2013-04-11T14:38:11Z</time>
      </trkpt>
      <trkpt lat="47.13333" lon="5.47392">
        <ele>218</ele>
        <time>2013-04-11T14:38:22Z</time>
      </trkpt>
      <trkpt lat="47.13338" lon="5.47404">
        <ele>217</ele>
        <time>2013-04-11T14:38:30Z</time>
      </trkpt>
      <trkpt lat="47.13341" lon="5.47414">
        <ele>217</ele>
        <time>2013-04-11T14:38:37Z</time>
      </trkpt>
      <trkpt lat="47.13343" lon="5.47419">
        <ele>217</ele>
        <time>2013-04-11T14:38:40Z</time>
      </trkpt>
      <trkpt lat="47.13344" lon="5.47423">
        <ele>217</ele>
        <time>2013-04-11T14:38:42Z</time>
      </trkpt>
      <trkpt lat="47.13345" lon="5.47431">
        <ele>216</ele>
        <time>2013-04-11T14:38:46Z</time>
      </trkpt>
      <trkpt lat="47.13354" lon="5.47455">
        <ele>215</ele>
        <time>2013-04-11T14:39:00Z</time>
      </trkpt>
      <trkpt lat="47.13355" lon="5.47472">
        <ele>214</ele>
        <time>2013-04-11T14:39:10Z</time>
      </trkpt>
      <trkpt lat="47.13357" lon="5.47509">
        <ele>213</ele>
        <time>2013-04-11T14:39:29Z</time>
      </trkpt>
      <trkpt lat="47.13357" lon="5.47511">
        <ele>213</ele>
        <time>2013-04-11T14:39:30Z</time>
      </trkpt>
      <trkpt lat="47.13356" lon="5.47522">
        <ele>213</ele>
        <time>2013-04-11T14:39:35Z</time>
      </trkpt>
      <trkpt lat="47.13354" lon="5.47537">
        <ele>213</ele>
        <time>2013-04-11T14:39:43Z</time>
      </trkpt>
      <trkpt lat="47.13353" lon="5.4755">
        <ele>214</ele>
        <time>2013-04-11T14:39:50Z</time>
      </trkpt>
      <trkpt lat="47.13353" lon="5.47559">
        <ele>213</ele>
        <time>2013-04-11T14:39:55Z</time>
      </trkpt>
      <trkpt lat="47.13355" lon="5.47568">
        <ele>213</ele>
        <time>2013-04-11T14:40:00Z</time>
      </trkpt>
      <trkpt lat="47.13357" lon="5.47575">
        <ele>213</ele>
        <time>2013-04-11T14:40:05Z</time>
      </trkpt>
      <trkpt lat="47.13364" lon="5.47594">
        <ele>213</ele>
        <time>2013-04-11T14:40:15Z</time>
      </trkpt>
      <trkpt lat="47.13373" lon="5.47618">
        <ele>211</ele>
        <time>2013-04-11T14:40:30Z</time>
      </trkpt>
      <trkpt lat="47.13384" lon="5.47649">
        <ele>210</ele>
        <time>2013-04-11T14:40:44Z</time>
      </trkpt>
      <trkpt lat="47.13391" lon="5.47671">
        <ele>209</ele>
        <time>2013-04-11T14:40:55Z</time>
      </trkpt>
      <trkpt lat="47.13396" lon="5.47678">
        <ele>208</ele>
        <time>2013-04-11T14:40:59Z</time>
      </trkpt>
      <trkpt lat="47.13406" lon="5.47705">
        <ele>207</ele>
        <time>2013-04-11T14:41:15Z</time>
      </trkpt>
      <trkpt lat="47.13407" lon="5.47719">
        <ele>206</ele>
        <time>2013-04-11T14:41:35Z</time>
      </trkpt>
      <trkpt lat="47.13406" lon="5.47725">
        <ele>206</ele>
        <time>2013-04-11T14:42:24Z</time>
      </trkpt>
      <trkpt lat="47.13409" lon="5.4772">
        <ele>206</ele>
        <time>2013-04-11T14:42:45Z</time>
      </trkpt>
      <trkpt lat="47.1341" lon="5.47723">
        <ele>207</ele>
        <time>2013-04-11T14:43:35Z</time>
      </trkpt>
      <trkpt lat="47.13393" lon="5.47721">
        <ele>207</ele>
        <time>2013-04-11T14:44:29Z</time>
      </trkpt>
      <trkpt lat="47.13396" lon="5.47721">
        <ele>207</ele>
        <time>2013-04-11T14:45:50Z</time>
      </trkpt>
      <trkpt lat="47.13398" lon="5.4772">
        <ele>207</ele>
        <time>2013-04-11T14:46:30Z</time>
      </trkpt>
      <trkpt lat="47.13398" lon="5.47721">
        <ele>208</ele>
        <time>2013-04-11T14:48:22Z</time>
      </trkpt>
      <trkpt lat="47.13402" lon="5.47724">
        <ele>208</ele>
        <time>2013-04-11T14:48:41Z</time>
      </trkpt>
      <trkpt lat="47.13404" lon="5.47735">
        <ele>207</ele>
        <time>2013-04-11T14:48:51Z</time>
      </trkpt>
      <trkpt lat="47.13411" lon="5.47754">
        <ele>206</ele>
        <time>2013-04-11T14:49:05Z</time>
      </trkpt>
      <trkpt lat="47.13414" lon="5.4777">
        <ele>206</ele>
        <time>2013-04-11T14:49:16Z</time>
      </trkpt>
      <trkpt lat="47.13415" lon="5.47774">
        <ele>206</ele>
        <time>2013-04-11T14:49:18Z</time>
      </trkpt>
      <trkpt lat="47.13427" lon="5.47791">
        <ele>206</ele>
        <time>2013-04-11T14:49:29Z</time>
      </trkpt>
      <trkpt lat="47.13427" lon="5.47794">
        <ele>205</ele>
        <time>2013-04-11T14:49:31Z</time>
      </trkpt>
      <trkpt lat="47.13429" lon="5.478">
        <ele>206</ele>
        <time>2013-04-11T14:49:35Z</time>
      </trkpt>
      <trkpt lat="47.13444" lon="5.47833">
        <ele>206</ele>
        <time>2013-04-11T14:49:54Z</time>
      </trkpt>
      <trkpt lat="47.13443" lon="5.4785">
        <ele>206</ele>
        <time>2013-04-11T14:50:08Z</time>
      </trkpt>
      <trkpt lat="47.13436" lon="5.47855">
        <ele>206</ele>
        <time>2013-04-11T14:50:23Z</time>
      </trkpt>
      <trkpt lat="47.13433" lon="5.47864">
        <ele>207</ele>
        <time>2013-04-11T14:50:46Z</time>
      </trkpt>
      <trkpt lat="47.13427" lon="5.47864">
        <ele>210</ele>
        <time>2013-04-11T14:51:40Z</time>
      </trkpt>
      <trkpt lat="47.13411" lon="5.47874">
        <ele>213</ele>
        <time>2013-04-11T14:52:01Z</time>
      </trkpt>
      <trkpt lat="47.13406" lon="5.47871">
        <ele>215</ele>
        <time>2013-04-11T14:52:19Z</time>
      </trkpt>
      <trkpt lat="47.13408" lon="5.47873">
        <ele>218</ele>
        <time>2013-04-11T14:52:45Z</time>
      </trkpt>
      <trkpt lat="47.13395" lon="5.47868">
        <ele>221</ele>
        <time>2013-04-11T14:53:02Z</time>
      </trkpt>
      <trkpt lat="47.13393" lon="5.4787">
        <ele>223</ele>
        <time>2013-04-11T14:53:20Z</time>
      </trkpt>
      <trkpt lat="47.13396" lon="5.47875">
        <ele>224</ele>
        <time>2013-04-11T14:53:43Z</time>
      </trkpt>
      <trkpt lat="47.1339" lon="5.47896">
        <ele>226</ele>
        <time>2013-04-11T14:54:05Z</time>
      </trkpt>
      <trkpt lat="47.13384" lon="5.47899">
        <ele>229</ele>
        <time>2013-04-11T14:54:20Z</time>
      </trkpt>
      <trkpt lat="47.1338" lon="5.47909">
        <ele>232</ele>
        <time>2013-04-11T14:54:39Z</time>
      </trkpt>
      <trkpt lat="47.13373" lon="5.47919">
        <ele>234</ele>
        <time>2013-04-11T14:54:54Z</time>
      </trkpt>
      <trkpt lat="47.13368" lon="5.47923">
        <ele>238</ele>
        <time>2013-04-11T14:55:13Z</time>
      </trkpt>
      <trkpt lat="47.13367" lon="5.47924">
        <ele>238</ele>
        <time>2013-04-11T14:55:14Z</time>
      </trkpt>
      <trkpt lat="47.13367" lon="5.47924">
        <ele>240</ele>
        <time>2013-04-11T14:55:22Z</time>
      </trkpt>
      <trkpt lat="47.13363" lon="5.47935">
        <ele>243</ele>
        <time>2013-04-11T14:55:38Z</time>
      </trkpt>
      <trkpt lat="47.13357" lon="5.47946">
        <ele>246</ele>
        <time>2013-04-11T14:56:02Z</time>
      </trkpt>
      <trkpt lat="47.13346" lon="5.47951">
        <ele>250</ele>
        <time>2013-04-11T14:56:28Z</time>
      </trkpt>
      <trkpt lat="47.13343" lon="5.47956">
        <ele>253</ele>
        <time>2013-04-11T14:56:55Z</time>
      </trkpt>
      <trkpt lat="47.13336" lon="5.47965">
        <ele>256</ele>
        <time>2013-04-11T14:57:16Z</time>
      </trkpt>
      <trkpt lat="47.1333" lon="5.47973">
        <ele>258</ele>
        <time>2013-04-11T14:57:34Z</time>
      </trkpt>
      <trkpt lat="47.13327" lon="5.47974">
        <ele>258</ele>
        <time>2013-04-11T14:58:03Z</time>
      </trkpt>
      <trkpt lat="47.13328" lon="5.47976">
        <ele>260</ele>
        <time>2013-04-11T14:58:05Z</time>
      </trkpt>
      <trkpt lat="47.13326" lon="5.47977">
        <ele>264</ele>
        <time>2013-04-11T14:58:15Z</time>
      </trkpt>
      <trkpt lat="47.13326" lon="5.47977">
        <ele>263</ele>
        <time>2013-04-11T14:58:16Z</time>
      </trkpt>
      <trkpt lat="47.13316" lon="5.47992">
        <ele>266</ele>
        <time>2013-04-11T14:58:30Z</time>
      </trkpt>
      <trkpt lat="47.13315" lon="5.47993">
        <ele>265</ele>
        <time>2013-04-11T14:58:31Z</time>
      </trkpt>
      <trkpt lat="47.13306" lon="5.48002">
        <ele>268</ele>
        <time>2013-04-11T14:58:44Z</time>
      </trkpt>
      <trkpt lat="47.13295" lon="5.48011">
        <ele>271</ele>
        <time>2013-04-11T14:58:59Z</time>
      </trkpt>
      <trkpt lat="47.13285" lon="5.48022">
        <ele>273</ele>
        <time>2013-04-11T14:59:11Z</time>
      </trkpt>
      <trkpt lat="47.13281" lon="5.48028">
        <ele>273</ele>
        <time>2013-04-11T14:59:16Z</time>
      </trkpt>
      <trkpt lat="47.13269" lon="5.48046">
        <ele>275</ele>
        <time>2013-04-11T14:59:31Z</time>
      </trkpt>
      <trkpt lat="47.13258" lon="5.48063">
        <ele>277</ele>
        <time>2013-04-11T14:59:46Z</time>
      </trkpt>
      <trkpt lat="47.13253" lon="5.48078">
        <ele>277</ele>
        <time>2013-04-11T15:00:01Z</time>
      </trkpt>
      <trkpt lat="47.13251" lon="5.4808">
        <ele>277</ele>
        <time>2013-04-11T15:00:27Z</time>
      </trkpt>
      <trkpt lat="47.13249" lon="5.48087">
        <ele>280</ele>
        <time>2013-04-11T15:09:38Z</time>
      </trkpt>
      <trkpt lat="47.13255" lon="5.48113">
        <ele>281</ele>
        <time>2013-04-11T15:09:58Z</time>
      </trkpt>
      <trkpt lat="47.13256" lon="5.48115">
        <ele>281</ele>
        <time>2013-04-11T15:10:00Z</time>
      </trkpt>
      <trkpt lat="47.13265" lon="5.48131">
        <ele>281</ele>
        <time>2013-04-11T15:10:13Z</time>
      </trkpt>
      <trkpt lat="47.13276" lon="5.48144">
        <ele>281</ele>
        <time>2013-04-11T15:10:26Z</time>
      </trkpt>
      <trkpt lat="47.13291" lon="5.48165">
        <ele>282</ele>
        <time>2013-04-11T15:10:44Z</time>
      </trkpt>
      <trkpt lat="47.13305" lon="5.48186">
        <ele>282</ele>
        <time>2013-04-11T15:11:07Z</time>
      </trkpt>
      <trkpt lat="47.13316" lon="5.48197">
        <ele>282</ele>
        <time>2013-04-11T15:11:16Z</time>
      </trkpt>
      <trkpt lat="47.13322" lon="5.48206">
        <ele>283</ele>
        <time>2013-04-11T15:11:23Z</time>
      </trkpt>
      <trkpt lat="47.13327" lon="5.48218">
        <ele>283</ele>
        <time>2013-04-11T15:11:31Z</time>
      </trkpt>
      <trkpt lat="47.13332" lon="5.48232">
        <ele>283</ele>
        <time>2013-04-11T15:11:40Z</time>
      </trkpt>
      <trkpt lat="47.13338" lon="5.4824">
        <ele>284</ele>
        <time>2013-04-11T15:11:48Z</time>
      </trkpt>
      <trkpt lat="47.13341" lon="5.48249">
        <ele>284</ele>
        <time>2013-04-11T15:11:52Z</time>
      </trkpt>
      <trkpt lat="47.13346" lon="5.48269">
        <ele>286</ele>
        <time>2013-04-11T15:12:09Z</time>
      </trkpt>
      <trkpt lat="47.13354" lon="5.48285">
        <ele>286</ele>
        <time>2013-04-11T15:12:22Z</time>
      </trkpt>
      <trkpt lat="47.13356" lon="5.48286">
        <ele>286</ele>
        <time>2013-04-11T15:12:23Z</time>
      </trkpt>
      <trkpt lat="47.13358" lon="5.48294">
        <ele>286</ele>
        <time>2013-04-11T15:12:28Z</time>
      </trkpt>
      <trkpt lat="47.13361" lon="5.48297">
        <ele>286</ele>
        <time>2013-04-11T15:12:31Z</time>
      </trkpt>
      <trkpt lat="47.13364" lon="5.48312">
        <ele>286</ele>
        <time>2013-04-11T15:12:42Z</time>
      </trkpt>
      <trkpt lat="47.13367" lon="5.48325">
        <ele>286</ele>
        <time>2013-04-11T15:12:51Z</time>
      </trkpt>
      <trkpt lat="47.13371" lon="5.48344">
        <ele>287</ele>
        <time>2013-04-11T15:13:04Z</time>
      </trkpt>
      <trkpt lat="47.1338" lon="5.48372">
        <ele>287</ele>
        <time>2013-04-11T15:13:22Z</time>
      </trkpt>
      <trkpt lat="47.13379" lon="5.48377">
        <ele>288</ele>
        <time>2013-04-11T15:13:25Z</time>
      </trkpt>
      <trkpt lat="47.13379" lon="5.48381">
        <ele>288</ele>
        <time>2013-04-11T15:13:27Z</time>
      </trkpt>
      <trkpt lat="47.1338" lon="5.48394">
        <ele>289</ele>
        <time>2013-04-11T15:13:34Z</time>
      </trkpt>
      <trkpt lat="47.13379" lon="5.48401">
        <ele>289</ele>
        <time>2013-04-11T15:13:40Z</time>
      </trkpt>
      <trkpt lat="47.13374" lon="5.48419">
        <ele>291</ele>
        <time>2013-04-11T15:13:54Z</time>
      </trkpt>
      <trkpt lat="47.13377" lon="5.48426">
        <ele>290</ele>
        <time>2013-04-11T15:13:59Z</time>
      </trkpt>
      <trkpt lat="47.1338" lon="5.48436">
        <ele>291</ele>
        <time>2013-04-11T15:14:16Z</time>
      </trkpt>
      <trkpt lat="47.13382" lon="5.48436">
        <ele>290</ele>
        <time>2013-04-11T15:14:52Z</time>
      </trkpt>
      <trkpt lat="47.13378" lon="5.48446">
        <ele>290</ele>
        <time>2013-04-11T15:15:50Z</time>
      </trkpt>
      <trkpt lat="47.13371" lon="5.48466">
        <ele>292</ele>
        <time>2013-04-11T15:16:05Z</time>
      </trkpt>
      <trkpt lat="47.13362" lon="5.48487">
        <ele>294</ele>
        <time>2013-04-11T15:16:20Z</time>
      </trkpt>
      <trkpt lat="47.13357" lon="5.48505">
        <ele>296</ele>
        <time>2013-04-11T15:16:33Z</time>
      </trkpt>
      <trkpt lat="47.13348" lon="5.48529">
        <ele>298</ele>
        <time>2013-04-11T15:16:52Z</time>
      </trkpt>
      <trkpt lat="47.13338" lon="5.4855">
        <ele>299</ele>
        <time>2013-04-11T15:17:08Z</time>
      </trkpt>
      <trkpt lat="47.13324" lon="5.48573">
        <ele>300</ele>
        <time>2013-04-11T15:17:25Z</time>
      </trkpt>
      <trkpt lat="47.13311" lon="5.48593">
        <ele>300</ele>
        <time>2013-04-11T15:17:41Z</time>
      </trkpt>
      <trkpt lat="47.13302" lon="5.48602">
        <ele>301</ele>
        <time>2013-04-11T15:17:51Z</time>
      </trkpt>
      <trkpt lat="47.13284" lon="5.48628">
        <ele>300</ele>
        <time>2013-04-11T15:18:09Z</time>
      </trkpt>
      <trkpt lat="47.13263" lon="5.48658">
        <ele>300</ele>
        <time>2013-04-11T15:18:32Z</time>
      </trkpt>
      <trkpt lat="47.1325" lon="5.48681">
        <ele>300</ele>
        <time>2013-04-11T15:18:48Z</time>
      </trkpt>
      <trkpt lat="47.13241" lon="5.48704">
        <ele>301</ele>
        <time>2013-04-11T15:19:01Z</time>
      </trkpt>
      <trkpt lat="47.13227" lon="5.48724">
        <ele>302</ele>
        <time>2013-04-11T15:19:16Z</time>
      </trkpt>
      <trkpt lat="47.13219" lon="5.48743">
        <ele>303</ele>
        <time>2013-04-11T15:19:29Z</time>
      </trkpt>
      <trkpt lat="47.13218" lon="5.4876">
        <ele>303</ele>
        <time>2013-04-11T15:19:38Z</time>
      </trkpt>
      <trkpt lat="47.13215" lon="5.48778">
        <ele>304</ele>
        <time>2013-04-11T15:19:49Z</time>
      </trkpt>
      <trkpt lat="47.13216" lon="5.48794">
        <ele>305</ele>
        <time>2013-04-11T15:19:58Z</time>
      </trkpt>
      <trkpt lat="47.13217" lon="5.488">
        <ele>306</ele>
        <time>2013-04-11T15:20:02Z</time>
      </trkpt>
      <trkpt lat="47.13219" lon="5.4881">
        <ele>306</ele>
        <time>2013-04-11T15:20:08Z</time>
      </trkpt>
      <trkpt lat="47.13213" lon="5.48834">
        <ele>308</ele>
        <time>2013-04-11T15:20:27Z</time>
      </trkpt>
      <trkpt lat="47.13203" lon="5.4886">
        <ele>309</ele>
        <time>2013-04-11T15:20:42Z</time>
      </trkpt>
      <trkpt lat="47.13198" lon="5.48882">
        <ele>310</ele>
        <time>2013-04-11T15:20:57Z</time>
      </trkpt>
      <trkpt lat="47.13187" lon="5.48919">
        <ele>311</ele>
        <time>2013-04-11T15:21:21Z</time>
      </trkpt>
      <trkpt lat="47.1318" lon="5.48932">
        <ele>311</ele>
        <time>2013-04-11T15:21:28Z</time>
      </trkpt>
      <trkpt lat="47.13177" lon="5.48937">
        <ele>311</ele>
        <time>2013-04-11T15:21:31Z</time>
      </trkpt>
      <trkpt lat="47.13173" lon="5.48952">
        <ele>310</ele>
        <time>2013-04-11T15:21:40Z</time>
      </trkpt>
      <trkpt lat="47.13171" lon="5.48957">
        <ele>311</ele>
        <time>2013-04-11T15:21:42Z</time>
      </trkpt>
      <trkpt lat="47.1316" lon="5.4898">
        <ele>310</ele>
        <time>2013-04-11T15:21:58Z</time>
      </trkpt>
      <trkpt lat="47.13148" lon="5.48998">
        <ele>309</ele>
        <time>2013-04-11T15:22:14Z</time>
      </trkpt>
      <trkpt lat="47.13138" lon="5.49017">
        <ele>309</ele>
        <time>2013-04-11T15:22:29Z</time>
      </trkpt>
      <trkpt lat="47.13135" lon="5.49033">
        <ele>309</ele>
        <time>2013-04-11T15:22:37Z</time>
      </trkpt>
      <trkpt lat="47.13129" lon="5.49046">
        <ele>308</ele>
        <time>2013-04-11T15:22:45Z</time>
      </trkpt>
      <trkpt lat="47.13121" lon="5.49067">
        <ele>308</ele>
        <time>2013-04-11T15:23:00Z</time>
      </trkpt>
      <trkpt lat="47.13115" lon="5.49092">
        <ele>307</ele>
        <time>2013-04-11T15:23:14Z</time>
      </trkpt>
      <trkpt lat="47.13103" lon="5.49113">
        <ele>306</ele>
        <time>2013-04-11T15:23:26Z</time>
      </trkpt>
      <trkpt lat="47.131" lon="5.49127">
        <ele>306</ele>
        <time>2013-04-11T15:23:35Z</time>
      </trkpt>
      <trkpt lat="47.13093" lon="5.49148">
        <ele>305</ele>
        <time>2013-04-11T15:23:48Z</time>
      </trkpt>
      <trkpt lat="47.13084" lon="5.49178">
        <ele>304</ele>
        <time>2013-04-11T15:24:07Z</time>
      </trkpt>
      <trkpt lat="47.13075" lon="5.49204">
        <ele>303</ele>
        <time>2013-04-11T15:24:20Z</time>
      </trkpt>
      <trkpt lat="47.13066" lon="5.49228">
        <ele>302</ele>
        <time>2013-04-11T15:24:36Z</time>
      </trkpt>
      <trkpt lat="47.13059" lon="5.4925">
        <ele>301</ele>
        <time>2013-04-11T15:24:52Z</time>
      </trkpt>
      <trkpt lat="47.13053" lon="5.49272">
        <ele>300</ele>
        <time>2013-04-11T15:25:08Z</time>
      </trkpt>
      <trkpt lat="47.13034" lon="5.4929">
        <ele>299</ele>
        <time>2013-04-11T15:25:26Z</time>
      </trkpt>
      <trkpt lat="47.13021" lon="5.49289">
        <ele>299</ele>
        <time>2013-04-11T15:25:36Z</time>
      </trkpt>
      <trkpt lat="47.13012" lon="5.49269">
        <ele>300</ele>
        <time>2013-04-11T15:25:51Z</time>
      </trkpt>
      <trkpt lat="47.12995" lon="5.49254">
        <ele>301</ele>
        <time>2013-04-11T15:26:09Z</time>
      </trkpt>
      <trkpt lat="47.12971" lon="5.49246">
        <ele>301</ele>
        <time>2013-04-11T15:26:26Z</time>
      </trkpt>
      <trkpt lat="47.12953" lon="5.49241">
        <ele>301</ele>
        <time>2013-04-11T15:26:42Z</time>
      </trkpt>
      <trkpt lat="47.12952" lon="5.4924">
        <ele>301</ele>
        <time>2013-04-11T15:26:43Z</time>
      </trkpt>
      <trkpt lat="47.12948" lon="5.49227">
        <ele>301</ele>
        <time>2013-04-11T15:26:51Z</time>
      </trkpt>
      <trkpt lat="47.12938" lon="5.49212">
        <ele>301</ele>
        <time>2013-04-11T15:27:04Z</time>
      </trkpt>
      <trkpt lat="47.12926" lon="5.49193">
        <ele>301</ele>
        <time>2013-04-11T15:27:20Z</time>
      </trkpt>
      <trkpt lat="47.12922" lon="5.49192">
        <ele>301</ele>
        <time>2013-04-11T15:27:24Z</time>
      </trkpt>
      <trkpt lat="47.12917" lon="5.49181">
        <ele>301</ele>
        <time>2013-04-11T15:27:32Z</time>
      </trkpt>
      <trkpt lat="47.12911" lon="5.49176">
        <ele>301</ele>
        <time>2013-04-11T15:27:37Z</time>
      </trkpt>
      <trkpt lat="47.12904" lon="5.49153">
        <ele>302</ele>
        <time>2013-04-11T15:27:52Z</time>
      </trkpt>
      <trkpt lat="47.12894" lon="5.49119">
        <ele>302</ele>
        <time>2013-04-11T15:28:12Z</time>
      </trkpt>
      <trkpt lat="47.12885" lon="5.49082">
        <ele>304</ele>
        <time>2013-04-11T15:28:33Z</time>
      </trkpt>
      <trkpt lat="47.12871" lon="5.4907">
        <ele>305</ele>
        <time>2013-04-11T15:28:53Z</time>
      </trkpt>
      <trkpt lat="47.12867" lon="5.49055">
        <ele>308</ele>
        <time>2013-04-11T15:29:08Z</time>
      </trkpt>
      <trkpt lat="47.12864" lon="5.49045">
        <ele>310</ele>
        <time>2013-04-11T15:29:18Z</time>
      </trkpt>
      <trkpt lat="47.12862" lon="5.49038">
        <ele>312</ele>
        <time>2013-04-11T15:29:44Z</time>
      </trkpt>
      <trkpt lat="47.12857" lon="5.49031">
        <ele>314</ele>
        <time>2013-04-11T15:29:51Z</time>
      </trkpt>
      <trkpt lat="47.12858" lon="5.49005">
        <ele>316</ele>
        <time>2013-04-11T15:30:14Z</time>
      </trkpt>
      <trkpt lat="47.12868" lon="5.49">
        <ele>316</ele>
        <time>2013-04-11T15:30:40Z</time>
      </trkpt>
      <trkpt lat="47.12868" lon="5.48972">
        <ele>317</ele>
        <time>2013-04-11T15:31:29Z</time>
      </trkpt>
      <trkpt lat="47.12869" lon="5.48947">
        <ele>318</ele>
        <time>2013-04-11T15:31:50Z</time>
      </trkpt>
      <trkpt lat="47.12877" lon="5.48933">
        <ele>318</ele>
        <time>2013-04-11T15:32:06Z</time>
      </trkpt>
      <trkpt lat="47.12879" lon="5.4893">
        <ele>319</ele>
        <time>2013-04-11T15:32:09Z</time>
      </trkpt>
      <trkpt lat="47.1288" lon="5.48918">
        <ele>319</ele>
        <time>2013-04-11T15:32:27Z</time>
      </trkpt>
      <trkpt lat="47.12883" lon="5.48899">
        <ele>320</ele>
        <time>2013-04-11T15:32:41Z</time>
      </trkpt>
      <trkpt lat="47.12894" lon="5.48882">
        <ele>322</ele>
        <time>2013-04-11T15:32:57Z</time>
      </trkpt>
      <trkpt lat="47.12896" lon="5.4885">
        <ele>323</ele>
        <time>2013-04-11T15:33:17Z</time>
      </trkpt>
      <trkpt lat="47.12899" lon="5.48812">
        <ele>323</ele>
        <time>2013-04-11T15:33:47Z</time>
      </trkpt>
      <trkpt lat="47.12902" lon="5.48784">
        <ele>324</ele>
        <time>2013-04-11T15:34:07Z</time>
      </trkpt>
      <trkpt lat="47.12895" lon="5.48754">
        <ele>325</ele>
        <time>2013-04-11T15:34:30Z</time>
      </trkpt>
      <trkpt lat="47.12893" lon="5.48729">
        <ele>324</ele>
        <time>2013-04-11T15:35:10Z</time>
      </trkpt>
      <trkpt lat="47.12888" lon="5.4871">
        <ele>324</ele>
        <time>2013-04-11T15:35:31Z</time>
      </trkpt>
      <trkpt lat="47.12878" lon="5.48682">
        <ele>323</ele>
        <time>2013-04-11T15:35:54Z</time>
      </trkpt>
      <trkpt lat="47.12864" lon="5.48647">
        <ele>321</ele>
        <time>2013-04-11T15:36:18Z</time>
      </trkpt>
      <trkpt lat="47.12862" lon="5.48608">
        <ele>321</ele>
        <time>2013-04-11T15:36:43Z</time>
      </trkpt>
      <trkpt lat="47.12862" lon="5.48575">
        <ele>320</ele>
        <time>2013-04-11T15:37:06Z</time>
      </trkpt>
      <trkpt lat="47.12859" lon="5.48563">
        <ele>319</ele>
        <time>2013-04-11T15:37:23Z</time>
      </trkpt>
      <trkpt lat="47.12861" lon="5.48547">
        <ele>318</ele>
        <time>2013-04-11T15:37:40Z</time>
      </trkpt>
      <trkpt lat="47.12862" lon="5.48528">
        <ele>318</ele>
        <time>2013-04-11T15:37:52Z</time>
      </trkpt>
      <trkpt lat="47.12866" lon="5.48488">
        <ele>317</ele>
        <time>2013-04-11T15:38:13Z</time>
      </trkpt>
      <trkpt lat="47.1287" lon="5.48446">
        <ele>315</ele>
        <time>2013-04-11T15:38:37Z</time>
      </trkpt>
      <trkpt lat="47.12874" lon="5.48412">
        <ele>315</ele>
        <time>2013-04-11T15:38:58Z</time>
      </trkpt>
      <trkpt lat="47.1286" lon="5.48404">
        <ele>313</ele>
        <time>2013-04-11T15:39:17Z</time>
      </trkpt>
      <trkpt lat="47.12852" lon="5.48407">
        <ele>312</ele>
        <time>2013-04-11T15:39:26Z</time>
      </trkpt>
      <trkpt lat="47.12836" lon="5.48401">
        <ele>312</ele>
        <time>2013-04-11T15:39:38Z</time>
      </trkpt>
      <trkpt lat="47.12814" lon="5.48397">
        <ele>311</ele>
        <time>2013-04-11T15:39:58Z</time>
      </trkpt>
      <trkpt lat="47.12791" lon="5.48395">
        <ele>311</ele>
        <time>2013-04-11T15:40:18Z</time>
      </trkpt>
      <trkpt lat="47.12767" lon="5.48386">
        <ele>313</ele>
        <time>2013-04-11T15:40:39Z</time>
      </trkpt>
      <trkpt lat="47.1275" lon="5.48377">
        <ele>314</ele>
        <time>2013-04-11T15:40:56Z</time>
      </trkpt>
      <trkpt lat="47.12729" lon="5.48371">
        <ele>312</ele>
        <time>2013-04-11T15:41:14Z</time>
      </trkpt>
      <trkpt lat="47.1271" lon="5.48363">
        <ele>311</ele>
        <time>2013-04-11T15:41:30Z</time>
      </trkpt>
      <trkpt lat="47.12688" lon="5.48356">
        <ele>311</ele>
        <time>2013-04-11T15:41:48Z</time>
      </trkpt>
      <trkpt lat="47.12674" lon="5.48352">
        <ele>310</ele>
        <time>2013-04-11T15:42:07Z</time>
      </trkpt>
      <trkpt lat="47.1265" lon="5.48341">
        <ele>309</ele>
        <time>2013-04-11T15:42:24Z</time>
      </trkpt>
      <trkpt lat="47.12646" lon="5.48337">
        <ele>309</ele>
        <time>2013-04-11T15:42:27Z</time>
      </trkpt>
      <trkpt lat="47.12639" lon="5.48336">
        <ele>308</ele>
        <time>2013-04-11T15:42:32Z</time>
      </trkpt>
      <trkpt lat="47.12628" lon="5.48329">
        <ele>308</ele>
        <time>2013-04-11T15:42:43Z</time>
      </trkpt>
      <trkpt lat="47.12604" lon="5.48319">
        <ele>306</ele>
        <time>2013-04-11T15:43:03Z</time>
      </trkpt>
      <trkpt lat="47.1259" lon="5.48314">
        <ele>304</ele>
        <time>2013-04-11T15:43:17Z</time>
      </trkpt>
      <trkpt lat="47.12566" lon="5.48303">
        <ele>302</ele>
        <time>2013-04-11T15:43:34Z</time>
      </trkpt>
      <trkpt lat="47.12549" lon="5.48289">
        <ele>301</ele>
        <time>2013-04-11T15:43:52Z</time>
      </trkpt>
      <trkpt lat="47.12553" lon="5.4828">
        <ele>300</ele>
        <time>2013-04-11T15:43:58Z</time>
      </trkpt>
      <trkpt lat="47.12557" lon="5.48278">
        <ele>300</ele>
        <time>2013-04-11T15:44:04Z</time>
      </trkpt>
      <trkpt lat="47.12559" lon="5.48265">
        <ele>299</ele>
        <time>2013-04-11T15:44:08Z</time>
      </trkpt>
      <trkpt lat="47.12565" lon="5.48239">
        <ele>298</ele>
        <time>2013-04-11T15:44:20Z</time>
      </trkpt>
      <trkpt lat="47.12568" lon="5.48233">
        <ele>297</ele>
        <time>2013-04-11T15:44:24Z</time>
      </trkpt>
      <trkpt lat="47.12569" lon="5.48229">
        <ele>296</ele>
        <time>2013-04-11T15:44:27Z</time>
      </trkpt>
      <trkpt lat="47.12568" lon="5.48219">
        <ele>295</ele>
        <time>2013-04-11T15:44:39Z</time>
      </trkpt>
      <trkpt lat="47.12557" lon="5.48197">
        <ele>294</ele>
        <time>2013-04-11T15:44:57Z</time>
      </trkpt>
      <trkpt lat="47.12558" lon="5.48185">
        <ele>292</ele>
        <time>2013-04-11T15:45:13Z</time>
      </trkpt>
      <trkpt lat="47.12568" lon="5.48177">
        <ele>292</ele>
        <time>2013-04-11T15:45:45Z</time>
      </trkpt>
      <trkpt lat="47.12573" lon="5.48179">
        <ele>292</ele>
        <time>2013-04-11T15:46:13Z</time>
      </trkpt>
      <trkpt lat="47.12575" lon="5.48175">
        <ele>292</ele>
        <time>2013-04-11T15:48:42Z</time>
      </trkpt>
      <trkpt lat="47.12568" lon="5.48171">
        <ele>293</ele>
        <time>2013-04-11T15:50:12Z</time>
      </trkpt>
      <trkpt lat="47.12557" lon="5.48179">
        <ele>293</ele>
        <time>2013-04-11T15:52:07Z</time>
      </trkpt>
      <trkpt lat="47.12527" lon="5.4819">
        <ele>292</ele>
        <time>2013-04-11T15:52:32Z</time>
      </trkpt>
      <trkpt lat="47.12509" lon="5.48185">
        <ele>292</ele>
        <time>2013-04-11T15:52:48Z</time>
      </trkpt>
      <trkpt lat="47.1249" lon="5.48182">
        <ele>291</ele>
        <time>2013-04-11T15:53:03Z</time>
      </trkpt>
      <trkpt lat="47.12485" lon="5.4818">
        <ele>290</ele>
        <time>2013-04-11T15:53:08Z</time>
      </trkpt>
      <trkpt lat="47.12479" lon="5.48177">
        <ele>290</ele>
        <time>2013-04-11T15:53:13Z</time>
      </trkpt>
      <trkpt lat="47.12458" lon="5.48172">
        <ele>290</ele>
        <time>2013-04-11T15:53:33Z</time>
      </trkpt>
      <trkpt lat="47.12444" lon="5.48166">
        <ele>288</ele>
        <time>2013-04-11T15:53:44Z</time>
      </trkpt>
      <trkpt lat="47.12423" lon="5.4816">
        <ele>287</ele>
        <time>2013-04-11T15:54:02Z</time>
      </trkpt>
      <trkpt lat="47.12402" lon="5.48155">
        <ele>286</ele>
        <time>2013-04-11T15:54:18Z</time>
      </trkpt>
      <trkpt lat="47.12393" lon="5.48154">
        <ele>284</ele>
        <time>2013-04-11T15:54:22Z</time>
      </trkpt>
      <trkpt lat="47.12365" lon="5.48136">
        <ele>281</ele>
        <time>2013-04-11T15:54:44Z</time>
      </trkpt>
      <trkpt lat="47.12335" lon="5.48136">
        <ele>279</ele>
        <time>2013-04-11T15:55:05Z</time>
      </trkpt>
      <trkpt lat="47.1233" lon="5.48132">
        <ele>279</ele>
        <time>2013-04-11T15:55:10Z</time>
      </trkpt>
      <trkpt lat="47.12299" lon="5.48123">
        <ele>278</ele>
        <time>2013-04-11T15:55:32Z</time>
      </trkpt>
      <trkpt lat="47.12274" lon="5.48126">
        <ele>279</ele>
        <time>2013-04-11T15:55:49Z</time>
      </trkpt>
      <trkpt lat="47.12269" lon="5.48126">
        <ele>279</ele>
        <time>2013-04-11T15:55:53Z</time>
      </trkpt>
      <trkpt lat="47.12238" lon="5.48137">
        <ele>280</ele>
        <time>2013-04-11T15:56:18Z</time>
      </trkpt>
      <trkpt lat="47.12215" lon="5.48134">
        <ele>282</ele>
        <time>2013-04-11T15:56:36Z</time>
      </trkpt>
      <trkpt lat="47.12188" lon="5.48129">
        <ele>282</ele>
        <time>2013-04-11T15:56:56Z</time>
      </trkpt>
      <trkpt lat="47.12169" lon="5.48117">
        <ele>281</ele>
        <time>2013-04-11T15:57:12Z</time>
      </trkpt>
      <trkpt lat="47.12148" lon="5.48095">
        <ele>280</ele>
        <time>2013-04-11T15:57:30Z</time>
      </trkpt>
      <trkpt lat="47.12145" lon="5.48092">
        <ele>281</ele>
        <time>2013-04-11T15:57:32Z</time>
      </trkpt>
      <trkpt lat="47.12126" lon="5.48075">
        <ele>280</ele>
        <time>2013-04-11T15:57:45Z</time>
      </trkpt>
      <trkpt lat="47.12123" lon="5.48073">
        <ele>281</ele>
        <time>2013-04-11T15:57:47Z</time>
      </trkpt>
      <trkpt lat="47.12117" lon="5.48069">
        <ele>280</ele>
        <time>2013-04-11T15:57:52Z</time>
      </trkpt>
      <trkpt lat="47.12115" lon="5.48068">
        <ele>280</ele>
        <time>2013-04-11T15:57:54Z</time>
      </trkpt>
      <trkpt lat="47.12107" lon="5.48064">
        <ele>280</ele>
        <time>2013-04-11T15:58:01Z</time>
      </trkpt>
      <trkpt lat="47.12082" lon="5.48053">
        <ele>279</ele>
        <time>2013-04-11T15:58:18Z</time>
      </trkpt>
      <trkpt lat="47.12074" lon="5.4805">
        <ele>279</ele>
        <time>2013-04-11T15:58:23Z</time>
      </trkpt>
      <trkpt lat="47.12055" lon="5.48042">
        <ele>279</ele>
        <time>2013-04-11T15:58:38Z</time>
      </trkpt>
      <trkpt lat="47.12042" lon="5.48035">
        <ele>278</ele>
        <time>2013-04-11T15:58:48Z</time>
      </trkpt>
      <trkpt lat="47.1203" lon="5.48032">
        <ele>278</ele>
        <time>2013-04-11T15:58:57Z</time>
      </trkpt>
      <trkpt lat="47.1201" lon="5.48022">
        <ele>277</ele>
        <time>2013-04-11T15:59:12Z</time>
      </trkpt>
      <trkpt lat="47.12006" lon="5.48021">
        <ele>277</ele>
        <time>2013-04-11T15:59:15Z</time>
      </trkpt>
      <trkpt lat="47.11988" lon="5.48005">
        <ele>275</ele>
        <time>2013-04-11T15:59:30Z</time>
      </trkpt>
      <trkpt lat="47.11983" lon="5.48003">
        <ele>274</ele>
        <time>2013-04-11T15:59:33Z</time>
      </trkpt>
      <trkpt lat="47.11974" lon="5.47997">
        <ele>274</ele>
        <time>2013-04-11T15:59:41Z</time>
      </trkpt>
      <trkpt lat="47.11959" lon="5.47988">
        <ele>273</ele>
        <time>2013-04-11T15:59:52Z</time>
      </trkpt>
      <trkpt lat="47.11941" lon="5.47979">
        <ele>273</ele>
        <time>2013-04-11T16:00:06Z</time>
      </trkpt>
      <trkpt lat="47.1191" lon="5.47953">
        <ele>273</ele>
        <time>2013-04-11T16:00:29Z</time>
      </trkpt>
      <trkpt lat="47.11906" lon="5.4795">
        <ele>273</ele>
        <time>2013-04-11T16:00:32Z</time>
      </trkpt>
      <trkpt lat="47.11898" lon="5.47947">
        <ele>273</ele>
        <time>2013-04-11T16:00:38Z</time>
      </trkpt>
      <trkpt lat="47.11869" lon="5.47943">
        <ele>273</ele>
        <time>2013-04-11T16:00:58Z</time>
      </trkpt>
      <trkpt lat="47.11863" lon="5.47938">
        <ele>273</ele>
        <time>2013-04-11T16:01:03Z</time>
      </trkpt>
      <trkpt lat="47.11858" lon="5.47935">
        <ele>272</ele>
        <time>2013-04-11T16:01:06Z</time>
      </trkpt>
      <trkpt lat="47.11839" lon="5.47932">
        <ele>273</ele>
        <time>2013-04-11T16:01:21Z</time>
      </trkpt>
      <trkpt lat="47.11833" lon="5.47935">
        <ele>273</ele>
        <time>2013-04-11T16:01:25Z</time>
      </trkpt>
      <trkpt lat="47.1182" lon="5.47938">
        <ele>273</ele>
        <time>2013-04-11T16:01:33Z</time>
      </trkpt>
      <trkpt lat="47.11816" lon="5.47938">
        <ele>273</ele>
        <time>2013-04-11T16:01:36Z</time>
      </trkpt>
      <trkpt lat="47.11798" lon="5.47933">
        <ele>272</ele>
        <time>2013-04-11T16:01:50Z</time>
      </trkpt>
      <trkpt lat="47.11778" lon="5.47918">
        <ele>271</ele>
        <time>2013-04-11T16:02:07Z</time>
      </trkpt>
      <trkpt lat="47.11758" lon="5.47907">
        <ele>270</ele>
        <time>2013-04-11T16:02:22Z</time>
      </trkpt>
      <trkpt lat="47.11738" lon="5.47898">
        <ele>269</ele>
        <time>2013-04-11T16:02:37Z</time>
      </trkpt>
      <trkpt lat="47.11727" lon="5.47893">
        <ele>269</ele>
        <time>2013-04-11T16:02:45Z</time>
      </trkpt>
      <trkpt lat="47.11696" lon="5.47878">
        <ele>269</ele>
        <time>2013-04-11T16:03:08Z</time>
      </trkpt>
      <trkpt lat="47.11689" lon="5.47876">
        <ele>268</ele>
        <time>2013-04-11T16:03:13Z</time>
      </trkpt>
      <trkpt lat="47.11685" lon="5.47874">
        <ele>268</ele>
        <time>2013-04-11T16:03:16Z</time>
      </trkpt>
      <trkpt lat="47.1167" lon="5.47873">
        <ele>266</ele>
        <time>2013-04-11T16:03:27Z</time>
      </trkpt>
      <trkpt lat="47.11652" lon="5.47871">
        <ele>266</ele>
        <time>2013-04-11T16:03:39Z</time>
      </trkpt>
      <trkpt lat="47.11647" lon="5.47871">
        <ele>266</ele>
        <time>2013-04-11T16:03:42Z</time>
      </trkpt>
      <trkpt lat="47.11641" lon="5.47871">
        <ele>266</ele>
        <time>2013-04-11T16:03:46Z</time>
      </trkpt>
      <trkpt lat="47.11639" lon="5.47871">
        <ele>266</ele>
        <time>2013-04-11T16:03:48Z</time>
      </trkpt>
      <trkpt lat="47.11615" lon="5.47875">
        <ele>265</ele>
        <time>2013-04-11T16:04:04Z</time>
      </trkpt>
      <trkpt lat="47.11593" lon="5.47886">
        <ele>265</ele>
        <time>2013-04-11T16:04:21Z</time>
      </trkpt>
      <trkpt lat="47.11572" lon="5.47894">
        <ele>264</ele>
        <time>2013-04-11T16:04:37Z</time>
      </trkpt>
      <trkpt lat="47.11563" lon="5.4789">
        <ele>264</ele>
        <time>2013-04-11T16:04:42Z</time>
      </trkpt>
      <trkpt lat="47.11561" lon="5.47888">
        <ele>264</ele>
        <time>2013-04-11T16:04:44Z</time>
      </trkpt>
      <trkpt lat="47.11558" lon="5.47888">
        <ele>264</ele>
        <time>2013-04-11T16:04:46Z</time>
      </trkpt>
      <trkpt lat="47.11537" lon="5.47877">
        <ele>262</ele>
        <time>2013-04-11T16:05:03Z</time>
      </trkpt>
      <trkpt lat="47.11532" lon="5.47875">
        <ele>262</ele>
        <time>2013-04-11T16:05:07Z</time>
      </trkpt>
      <trkpt lat="47.11513" lon="5.47864">
        <ele>261</ele>
        <time>2013-04-11T16:05:20Z</time>
      </trkpt>
      <trkpt lat="47.11482" lon="5.47846">
        <ele>258</ele>
        <time>2013-04-11T16:05:44Z</time>
      </trkpt>
      <trkpt lat="47.11474" lon="5.47844">
        <ele>259</ele>
        <time>2013-04-11T16:05:49Z</time>
      </trkpt>
      <trkpt lat="47.11466" lon="5.4784">
        <ele>258</ele>
        <time>2013-04-11T16:05:55Z</time>
      </trkpt>
      <trkpt lat="47.11435" lon="5.47821">
        <ele>258</ele>
        <time>2013-04-11T16:06:18Z</time>
      </trkpt>
      <trkpt lat="47.11426" lon="5.47818">
        <ele>257</ele>
        <time>2013-04-11T16:06:25Z</time>
      </trkpt>
      <trkpt lat="47.1141" lon="5.47819">
        <ele>257</ele>
        <time>2013-04-11T16:06:37Z</time>
      </trkpt>
      <trkpt lat="47.11403" lon="5.47819">
        <ele>257</ele>
        <time>2013-04-11T16:06:41Z</time>
      </trkpt>
      <trkpt lat="47.11394" lon="5.47817">
        <ele>257</ele>
        <time>2013-04-11T16:06:49Z</time>
      </trkpt>
      <trkpt lat="47.11387" lon="5.47817">
        <ele>257</ele>
        <time>2013-04-11T16:06:54Z</time>
      </trkpt>
      <trkpt lat="47.1137" lon="5.47819">
        <ele>257</ele>
        <time>2013-04-11T16:07:09Z</time>
      </trkpt>
      <trkpt lat="47.11366" lon="5.4782">
        <ele>257</ele>
        <time>2013-04-11T16:07:12Z</time>
      </trkpt>
      <trkpt lat="47.11347" lon="5.47815">
        <ele>256</ele>
        <time>2013-04-11T16:07:26Z</time>
      </trkpt>
      <trkpt lat="47.11325" lon="5.47813">
        <ele>256</ele>
        <time>2013-04-11T16:07:42Z</time>
      </trkpt>
      <trkpt lat="47.11311" lon="5.47814">
        <ele>255</ele>
        <time>2013-04-11T16:07:52Z</time>
      </trkpt>
      <trkpt lat="47.11295" lon="5.47815">
        <ele>254</ele>
        <time>2013-04-11T16:08:02Z</time>
      </trkpt>
      <trkpt lat="47.11268" lon="5.47797">
        <ele>254</ele>
        <time>2013-04-11T16:08:22Z</time>
      </trkpt>
      <trkpt lat="47.11246" lon="5.47791">
        <ele>254</ele>
        <time>2013-04-11T16:08:37Z</time>
      </trkpt>
      <trkpt lat="47.11218" lon="5.4778">
        <ele>255</ele>
        <time>2013-04-11T16:08:57Z</time>
      </trkpt>
      <trkpt lat="47.11205" lon="5.4777">
        <ele>255</ele>
        <time>2013-04-11T16:09:08Z</time>
      </trkpt>
      <trkpt lat="47.11201" lon="5.47769">
        <ele>255</ele>
        <time>2013-04-11T16:09:12Z</time>
      </trkpt>
      <trkpt lat="47.11175" lon="5.47763">
        <ele>256</ele>
        <time>2013-04-11T16:09:31Z</time>
      </trkpt>
      <trkpt lat="47.1116" lon="5.4776">
        <ele>256</ele>
        <time>2013-04-11T16:09:42Z</time>
      </trkpt>
      <trkpt lat="47.11146" lon="5.47758">
        <ele>255</ele>
        <time>2013-04-11T16:09:52Z</time>
      </trkpt>
      <trkpt lat="47.11118" lon="5.47748">
        <ele>255</ele>
        <time>2013-04-11T16:10:12Z</time>
      </trkpt>
      <trkpt lat="47.11096" lon="5.47745">
        <ele>255</ele>
        <time>2013-04-11T16:10:29Z</time>
      </trkpt>
      <trkpt lat="47.11068" lon="5.47737">
        <ele>254</ele>
        <time>2013-04-11T16:10:50Z</time>
      </trkpt>
      <trkpt lat="47.11056" lon="5.47735">
        <ele>254</ele>
        <time>2013-04-11T16:10:58Z</time>
      </trkpt>
      <trkpt lat="47.11035" lon="5.47731">
        <ele>254</ele>
        <time>2013-04-11T16:11:15Z</time>
      </trkpt>
      <trkpt lat="47.1102" lon="5.47726">
        <ele>253</ele>
        <time>2013-04-11T16:11:25Z</time>
      </trkpt>
      <trkpt lat="47.11006" lon="5.47723">
        <ele>253</ele>
        <time>2013-04-11T16:11:37Z</time>
      </trkpt>
      <trkpt lat="47.10994" lon="5.47717">
        <ele>252</ele>
        <time>2013-04-11T16:11:47Z</time>
      </trkpt>
      <trkpt lat="47.1098" lon="5.47712">
        <ele>252</ele>
        <time>2013-04-11T16:11:57Z</time>
      </trkpt>
      <trkpt lat="47.10973" lon="5.47709">
        <ele>252</ele>
        <time>2013-04-11T16:12:03Z</time>
      </trkpt>
      <trkpt lat="47.10962" lon="5.47702">
        <ele>252</ele>
        <time>2013-04-11T16:12:12Z</time>
      </trkpt>
      <trkpt lat="47.10931" lon="5.47697">
        <ele>252</ele>
        <time>2013-04-11T16:12:37Z</time>
      </trkpt>
      <trkpt lat="47.10913" lon="5.47697">
        <ele>251</ele>
        <time>2013-04-11T16:12:50Z</time>
      </trkpt>
      <trkpt lat="47.10911" lon="5.4769">
        <ele>251</ele>
        <time>2013-04-11T16:12:53Z</time>
      </trkpt>
      <trkpt lat="47.10913" lon="5.47683">
        <ele>251</ele>
        <time>2013-04-11T16:12:57Z</time>
      </trkpt>
      <trkpt lat="47.1092" lon="5.47677">
        <ele>251</ele>
        <time>2013-04-11T16:13:04Z</time>
      </trkpt>
      <trkpt lat="47.10934" lon="5.47639">
        <ele>251</ele>
        <time>2013-04-11T16:13:26Z</time>
      </trkpt>
      <trkpt lat="47.10947" lon="5.47615">
        <ele>251</ele>
        <time>2013-04-11T16:13:42Z</time>
      </trkpt>
      <trkpt lat="47.10965" lon="5.47581">
        <ele>251</ele>
        <time>2013-04-11T16:14:05Z</time>
      </trkpt>
      <trkpt lat="47.10985" lon="5.47548">
        <ele>252</ele>
        <time>2013-04-11T16:14:28Z</time>
      </trkpt>
      <trkpt lat="47.11005" lon="5.47518">
        <ele>255</ele>
        <time>2013-04-11T16:14:51Z</time>
      </trkpt>
      <trkpt lat="47.11023" lon="5.4749">
        <ele>256</ele>
        <time>2013-04-11T16:15:12Z</time>
      </trkpt>
      <trkpt lat="47.11044" lon="5.47454">
        <ele>257</ele>
        <time>2013-04-11T16:15:37Z</time>
      </trkpt>
      <trkpt lat="47.11056" lon="5.47423">
        <ele>259</ele>
        <time>2013-04-11T16:15:56Z</time>
      </trkpt>
      <trkpt lat="47.11062" lon="5.47398">
        <ele>260</ele>
        <time>2013-04-11T16:16:10Z</time>
      </trkpt>
      <trkpt lat="47.11063" lon="5.47391">
        <ele>260</ele>
        <time>2013-04-11T16:16:14Z</time>
      </trkpt>
      <trkpt lat="47.11063" lon="5.47383">
        <ele>260</ele>
        <time>2013-04-11T16:16:18Z</time>
      </trkpt>
      <trkpt lat="47.11065" lon="5.47369">
        <ele>261</ele>
        <time>2013-04-11T16:16:26Z</time>
      </trkpt>
      <trkpt lat="47.11066" lon="5.47359">
        <ele>261</ele>
        <time>2013-04-11T16:16:31Z</time>
      </trkpt>
      <trkpt lat="47.1107" lon="5.47325">
        <ele>262</ele>
        <time>2013-04-11T16:16:50Z</time>
      </trkpt>
      <trkpt lat="47.1107" lon="5.47317">
        <ele>263</ele>
        <time>2013-04-11T16:16:54Z</time>
      </trkpt>
      <trkpt lat="47.11073" lon="5.47303">
        <ele>264</ele>
        <time>2013-04-11T16:17:03Z</time>
      </trkpt>
      <trkpt lat="47.11073" lon="5.47298">
        <ele>264</ele>
        <time>2013-04-11T16:17:06Z</time>
      </trkpt>
      <trkpt lat="47.11083" lon="5.47276">
        <ele>266</ele>
        <time>2013-04-11T16:17:22Z</time>
      </trkpt>
      <trkpt lat="47.11086" lon="5.47256">
        <ele>267</ele>
        <time>2013-04-11T16:17:35Z</time>
      </trkpt>
      <trkpt lat="47.11091" lon="5.47239">
        <ele>268</ele>
        <time>2013-04-11T16:17:47Z</time>
      </trkpt>
      <trkpt lat="47.11093" lon="5.47208">
        <ele>271</ele>
        <time>2013-04-11T16:18:08Z</time>
      </trkpt>
      <trkpt lat="47.11097" lon="5.47204">
        <ele>271</ele>
        <time>2013-04-11T16:18:22Z</time>
      </trkpt>
      <trkpt lat="47.11099" lon="5.47201">
        <ele>271</ele>
        <time>2013-04-11T16:18:46Z</time>
      </trkpt>
      <trkpt lat="47.11102" lon="5.47189">
        <ele>272</ele>
        <time>2013-04-11T16:19:11Z</time>
      </trkpt>
      <trkpt lat="47.11111" lon="5.47163">
        <ele>275</ele>
        <time>2013-04-11T16:19:30Z</time>
      </trkpt>
      <trkpt lat="47.11111" lon="5.47156">
        <ele>276</ele>
        <time>2013-04-11T16:19:33Z</time>
      </trkpt>
      <trkpt lat="47.11118" lon="5.47123">
        <ele>278</ele>
        <time>2013-04-11T16:19:55Z</time>
      </trkpt>
      <trkpt lat="47.11125" lon="5.47093">
        <ele>281</ele>
        <time>2013-04-11T16:20:12Z</time>
      </trkpt>
      <trkpt lat="47.11125" lon="5.4709">
        <ele>281</ele>
        <time>2013-04-11T16:20:14Z</time>
      </trkpt>
      <trkpt lat="47.11126" lon="5.47061">
        <ele>284</ele>
        <time>2013-04-11T16:20:28Z</time>
      </trkpt>
      <trkpt lat="47.11131" lon="5.47038">
        <ele>287</ele>
        <time>2013-04-11T16:20:43Z</time>
      </trkpt>
      <trkpt lat="47.11134" lon="5.4701">
        <ele>290</ele>
        <time>2013-04-11T16:20:59Z</time>
      </trkpt>
      <trkpt lat="47.11135" lon="5.46995">
        <ele>291</ele>
        <time>2013-04-11T16:21:07Z</time>
      </trkpt>
      <trkpt lat="47.11142" lon="5.4697">
        <ele>293</ele>
        <time>2013-04-11T16:21:23Z</time>
      </trkpt>
      <trkpt lat="47.11151" lon="5.46938">
        <ele>293</ele>
        <time>2013-04-11T16:21:39Z</time>
      </trkpt>
      <trkpt lat="47.1115" lon="5.46933">
        <ele>294</ele>
        <time>2013-04-11T16:21:42Z</time>
      </trkpt>
      <trkpt lat="47.1115" lon="5.46927">
        <ele>294</ele>
        <time>2013-04-11T16:21:45Z</time>
      </trkpt>
      <trkpt lat="47.11158" lon="5.46905">
        <ele>296</ele>
        <time>2013-04-11T16:22:02Z</time>
      </trkpt>
      <trkpt lat="47.1116" lon="5.46891">
        <ele>296</ele>
        <time>2013-04-11T16:22:20Z</time>
      </trkpt>
      <trkpt lat="47.11153" lon="5.4687">
        <ele>297</ele>
        <time>2013-04-11T16:22:31Z</time>
      </trkpt>
      <trkpt lat="47.11153" lon="5.46869">
        <ele>297</ele>
        <time>2013-04-11T16:22:32Z</time>
      </trkpt>
      <trkpt lat="47.11147" lon="5.4684">
        <ele>296</ele>
        <time>2013-04-11T16:22:50Z</time>
      </trkpt>
      <trkpt lat="47.11146" lon="5.46837">
        <ele>296</ele>
        <time>2013-04-11T16:22:52Z</time>
      </trkpt>
      <trkpt lat="47.11144" lon="5.46832">
        <ele>296</ele>
        <time>2013-04-11T16:22:56Z</time>
      </trkpt>
      <trkpt lat="47.11139" lon="5.46819">
        <ele>295</ele>
        <time>2013-04-11T16:23:04Z</time>
      </trkpt>
      <trkpt lat="47.11134" lon="5.46806">
        <ele>295</ele>
        <time>2013-04-11T16:23:11Z</time>
      </trkpt>
      <trkpt lat="47.11132" lon="5.468">
        <ele>294</ele>
        <time>2013-04-11T16:23:16Z</time>
      </trkpt>
      <trkpt lat="47.11129" lon="5.46794">
        <ele>294</ele>
        <time>2013-04-11T16:23:20Z</time>
      </trkpt>
      <trkpt lat="47.1112" lon="5.46774">
        <ele>294</ele>
        <time>2013-04-11T16:23:34Z</time>
      </trkpt>
      <trkpt lat="47.11113" lon="5.46752">
        <ele>292</ele>
        <time>2013-04-11T16:23:47Z</time>
      </trkpt>
      <trkpt lat="47.11101" lon="5.46726">
        <ele>292</ele>
        <time>2013-04-11T16:24:00Z</time>
      </trkpt>
      <trkpt lat="47.11088" lon="5.46702">
        <ele>291</ele>
        <time>2013-04-11T16:24:20Z</time>
      </trkpt>
      <trkpt lat="47.11073" lon="5.46684">
        <ele>289</ele>
        <time>2013-04-11T16:24:37Z</time>
      </trkpt>
      <trkpt lat="47.11072" lon="5.46675">
        <ele>289</ele>
        <time>2013-04-11T16:24:42Z</time>
      </trkpt>
      <trkpt lat="47.11073" lon="5.46668">
        <ele>289</ele>
        <time>2013-04-11T16:24:46Z</time>
      </trkpt>
      <trkpt lat="47.11072" lon="5.46649">
        <ele>288</ele>
        <time>2013-04-11T16:24:56Z</time>
      </trkpt>
      <trkpt lat="47.11074" lon="5.46632">
        <ele>288</ele>
        <time>2013-04-11T16:25:05Z</time>
      </trkpt>
      <trkpt lat="47.11083" lon="5.46615">
        <ele>289</ele>
        <time>2013-04-11T16:25:22Z</time>
      </trkpt>
      <trkpt lat="47.11095" lon="5.46613">
        <ele>289</ele>
        <time>2013-04-11T16:25:35Z</time>
      </trkpt>
      <trkpt lat="47.11096" lon="5.46612">
        <ele>289</ele>
        <time>2013-04-11T16:25:36Z</time>
      </trkpt>
      <trkpt lat="47.11107" lon="5.46598">
        <ele>291</ele>
        <time>2013-04-11T16:25:50Z</time>
      </trkpt>
      <trkpt lat="47.11107" lon="5.46595">
        <ele>291</ele>
        <time>2013-04-11T16:25:53Z</time>
      </trkpt>
      <trkpt lat="47.11112" lon="5.46559">
        <ele>289</ele>
        <time>2013-04-11T16:26:13Z</time>
      </trkpt>
      <trkpt lat="47.11114" lon="5.46555">
        <ele>290</ele>
        <time>2013-04-11T16:26:16Z</time>
      </trkpt>
      <trkpt lat="47.11118" lon="5.46549">
        <ele>290</ele>
        <time>2013-04-11T16:26:21Z</time>
      </trkpt>
      <trkpt lat="47.1113" lon="5.4651">
        <ele>289</ele>
        <time>2013-04-11T16:26:41Z</time>
      </trkpt>
      <trkpt lat="47.11139" lon="5.46494">
        <ele>289</ele>
        <time>2013-04-11T16:26:51Z</time>
      </trkpt>
      <trkpt lat="47.11141" lon="5.46489">
        <ele>290</ele>
        <time>2013-04-11T16:26:54Z</time>
      </trkpt>
      <trkpt lat="47.11156" lon="5.46447">
        <ele>289</ele>
        <time>2013-04-11T16:27:17Z</time>
      </trkpt>
      <trkpt lat="47.11158" lon="5.46438">
        <ele>289</ele>
        <time>2013-04-11T16:27:22Z</time>
      </trkpt>
      <trkpt lat="47.1116" lon="5.46432">
        <ele>289</ele>
        <time>2013-04-11T16:27:26Z</time>
      </trkpt>
      <trkpt lat="47.11163" lon="5.46385">
        <ele>287</ele>
        <time>2013-04-11T16:27:49Z</time>
      </trkpt>
      <trkpt lat="47.11166" lon="5.46359">
        <ele>285</ele>
        <time>2013-04-11T16:28:03Z</time>
      </trkpt>
      <trkpt lat="47.11163" lon="5.46331">
        <ele>284</ele>
        <time>2013-04-11T16:28:19Z</time>
      </trkpt>
      <trkpt lat="47.11162" lon="5.46315">
        <ele>282</ele>
        <time>2013-04-11T16:28:27Z</time>
      </trkpt>
      <trkpt lat="47.11164" lon="5.46295">
        <ele>280</ele>
        <time>2013-04-11T16:28:38Z</time>
      </trkpt>
      <trkpt lat="47.11166" lon="5.46286">
        <ele>280</ele>
        <time>2013-04-11T16:28:42Z</time>
      </trkpt>
      <trkpt lat="47.11174" lon="5.46255">
        <ele>277</ele>
        <time>2013-04-11T16:28:58Z</time>
      </trkpt>
      <trkpt lat="47.11185" lon="5.46235">
        <ele>277</ele>
        <time>2013-04-11T16:29:10Z</time>
      </trkpt>
      <trkpt lat="47.11188" lon="5.46223">
        <ele>276</ele>
        <time>2013-04-11T16:29:17Z</time>
      </trkpt>
      <trkpt lat="47.1119" lon="5.46217">
        <ele>275</ele>
        <time>2013-04-11T16:29:21Z</time>
      </trkpt>
      <trkpt lat="47.11196" lon="5.46199">
        <ele>275</ele>
        <time>2013-04-11T16:29:32Z</time>
      </trkpt>
      <trkpt lat="47.11198" lon="5.46188">
        <ele>275</ele>
        <time>2013-04-11T16:29:39Z</time>
      </trkpt>
      <trkpt lat="47.112" lon="5.46184">
        <ele>275</ele>
        <time>2013-04-11T16:29:41Z</time>
      </trkpt>
      <trkpt lat="47.11202" lon="5.46164">
        <ele>275</ele>
        <time>2013-04-11T16:29:51Z</time>
      </trkpt>
      <trkpt lat="47.11206" lon="5.46157">
        <ele>275</ele>
        <time>2013-04-11T16:29:55Z</time>
      </trkpt>
      <trkpt lat="47.11213" lon="5.46145">
        <ele>274</ele>
        <time>2013-04-11T16:30:03Z</time>
      </trkpt>
      <trkpt lat="47.11218" lon="5.46123">
        <ele>274</ele>
        <time>2013-04-11T16:30:16Z</time>
      </trkpt>
      <trkpt lat="47.11225" lon="5.46101">
        <ele>273</ele>
        <time>2013-04-11T16:30:29Z</time>
      </trkpt>
      <trkpt lat="47.11225" lon="5.461">
        <ele>273</ele>
        <time>2013-04-11T16:30:30Z</time>
      </trkpt>
      <trkpt lat="47.11231" lon="5.46089">
        <ele>273</ele>
        <time>2013-04-11T16:30:37Z</time>
      </trkpt>
      <trkpt lat="47.11233" lon="5.46088">
        <ele>272</ele>
        <time>2013-04-11T16:30:39Z</time>
      </trkpt>
      <trkpt lat="47.11237" lon="5.46078">
        <ele>272</ele>
        <time>2013-04-11T16:30:45Z</time>
      </trkpt>
      <trkpt lat="47.1124" lon="5.46075">
        <ele>272</ele>
        <time>2013-04-11T16:30:48Z</time>
      </trkpt>
      <trkpt lat="47.11251" lon="5.46054">
        <ele>271</ele>
        <time>2013-04-11T16:31:00Z</time>
      </trkpt>
      <trkpt lat="47.11254" lon="5.46041">
        <ele>270</ele>
        <time>2013-04-11T16:31:06Z</time>
      </trkpt>
      <trkpt lat="47.11251" lon="5.46019">
        <ele>270</ele>
        <time>2013-04-11T16:31:16Z</time>
      </trkpt>
      <trkpt lat="47.11251" lon="5.46008">
        <ele>269</ele>
        <time>2013-04-11T16:31:21Z</time>
      </trkpt>
      <trkpt lat="47.1125" lon="5.46">
        <ele>268</ele>
        <time>2013-04-11T16:31:25Z</time>
      </trkpt>
      <trkpt lat="47.1125" lon="5.45974">
        <ele>267</ele>
        <time>2013-04-11T16:31:38Z</time>
      </trkpt>
      <trkpt lat="47.11249" lon="5.45947">
        <ele>265</ele>
        <time>2013-04-11T16:31:51Z</time>
      </trkpt>
      <trkpt lat="47.11248" lon="5.45939">
        <ele>265</ele>
        <time>2013-04-11T16:31:56Z</time>
      </trkpt>
      <trkpt lat="47.11249" lon="5.4593">
        <ele>264</ele>
        <time>2013-04-11T16:32:00Z</time>
      </trkpt>
      <trkpt lat="47.11252" lon="5.45926">
        <ele>265</ele>
        <time>2013-04-11T16:32:03Z</time>
      </trkpt>
      <trkpt lat="47.11273" lon="5.45896">
        <ele>264</ele>
        <time>2013-04-11T16:32:23Z</time>
      </trkpt>
      <trkpt lat="47.11281" lon="5.45883">
        <ele>262</ele>
        <time>2013-04-11T16:32:33Z</time>
      </trkpt>
      <trkpt lat="47.11283" lon="5.45873">
        <ele>262</ele>
        <time>2013-04-11T16:32:37Z</time>
      </trkpt>
      <trkpt lat="47.11284" lon="5.45866">
        <ele>261</ele>
        <time>2013-04-11T16:32:41Z</time>
      </trkpt>
      <trkpt lat="47.11287" lon="5.45859">
        <ele>261</ele>
        <time>2013-04-11T16:32:45Z</time>
      </trkpt>
      <trkpt lat="47.11297" lon="5.45848">
        <ele>260</ele>
        <time>2013-04-11T16:32:52Z</time>
      </trkpt>
      <trkpt lat="47.113" lon="5.45835">
        <ele>260</ele>
        <time>2013-04-11T16:33:00Z</time>
      </trkpt>
      <trkpt lat="47.11303" lon="5.4583">
        <ele>259</ele>
        <time>2013-04-11T16:33:03Z</time>
      </trkpt>
      <trkpt lat="47.11303" lon="5.45826">
        <ele>257</ele>
        <time>2013-04-11T16:33:05Z</time>
      </trkpt>
      <trkpt lat="47.11315" lon="5.45801">
        <ele>257</ele>
        <time>2013-04-11T16:33:21Z</time>
      </trkpt>
      <trkpt lat="47.11324" lon="5.45782">
        <ele>256</ele>
        <time>2013-04-11T16:33:34Z</time>
      </trkpt>
      <trkpt lat="47.11325" lon="5.45778">
        <ele>256</ele>
        <time>2013-04-11T16:33:35Z</time>
      </trkpt>
      <trkpt lat="47.11329" lon="5.45766">
        <ele>255</ele>
        <time>2013-04-11T16:33:41Z</time>
      </trkpt>
      <trkpt lat="47.11337" lon="5.4574">
        <ele>254</ele>
        <time>2013-04-11T16:34:06Z</time>
      </trkpt>
      <trkpt lat="47.11337" lon="5.4574">
        <ele>255</ele>
        <time>2013-04-11T16:34:42Z</time>
      </trkpt>
      <trkpt lat="47.11337" lon="5.4574">
        <ele>255</ele>
        <time>2013-04-11T16:35:16Z</time>
      </trkpt>
    </trkseg>
  </trk>
</gpx>